Observation data for Levelland on 08/06/2020      Previous  Date       Current Mesonet Observations  Soil Data  Daily Summary Page  Observations in Plain Language
KLD1 060500Z 11009KT 27/15 A30 RMK A01 T02710150  RH  047%=      5-min Rain = 0
KLD1 060501Z 11010KT 27/15 A30 RMK A01 T02710150  RH  047%=      5-min Rain = 0
KLD1 060502Z 11009KT 27/15 A30 RMK A01 T02720149  RH  047%=      5-min Rain = 0
KLD1 060503Z 11009KT 27/15 A30 RMK A01 T02720149  RH  047%=      5-min Rain = 0
KLD1 060504Z 11009KT 27/15 A30 RMK A01 T02720149  RH  047%=      5-min Rain = 0
KLD1 060505Z 11009KT 27/15 A30 RMK A01 T02720149  RH  047%=      5-min Rain = 0
KLD1 060506Z 11009KT 27/15 A30 RMK A01 T02720149  RH  047%=      5-min Rain = 0
KLD1 060507Z 11009KT 27/15 A30 RMK A01 T02720148  RH  047%=      5-min Rain = 0
KLD1 060508Z 11008KT 27/15 A30 RMK A01 T02720148  RH  047%=      5-min Rain = 0
KLD1 060509Z 11009KT 27/15 A30 RMK A01 T02720148  RH  047%=      5-min Rain = 0
KLD1 060510Z 11009KT 27/15 A30 RMK A01 T02720148  RH  047%=      5-min Rain = 0
KLD1 060511Z 11009KT 27/15 A30 RMK A01 T02720147  RH  047%=      5-min Rain = 0
KLD1 060512Z 11008KT 27/15 A30 RMK A01 T02710147  RH  047%=      5-min Rain = 0
KLD1 060513Z 11009KT 27/15 A30 RMK A01 T02710147  RH  047%=      5-min Rain = 0
KLD1 060514Z 11008KT 27/15 A30 RMK A01 T02710147  RH  046%=      5-min Rain = 0
KLD1 060515Z 11008KT 27/15 A30 RMK A01 T02710146  RH  046%=      5-min Rain = 0
KLD1 060516Z 12008KT 27/15 A30 RMK A01 T02710145  RH  046%=      5-min Rain = 0
KLD1 060517Z 11008KT 27/15 A30 RMK A01 T02720145  RH  046%=      5-min Rain = 0
KLD1 060518Z 12008KT 27/15 A30 RMK A01 T02720145  RH  046%=      5-min Rain = 0
KLD1 060519Z 11008KT 27/15 A30 RMK A01 T02720145  RH  046%=      5-min Rain = 0
KLD1 060520Z 12008KT 27/15 A30 RMK A01 T02720145  RH  046%=      5-min Rain = 0
KLD1 060521Z 12008KT 27/15 A30 RMK A01 T02720145  RH  046%=      5-min Rain = 0
KLD1 060522Z 12007KT 27/14 A30 RMK A01 T02720144  RH  046%=      5-min Rain = 0
KLD1 060523Z 12007KT 27/14 A30 RMK A01 T02710144  RH  046%=      5-min Rain = 0
KLD1 060524Z 12007KT 27/14 A30 RMK A01 T02710144  RH  045%=      5-min Rain = 0
KLD1 060525Z 12007KT 27/14 A30 RMK A01 T02710143  RH  045%=      5-min Rain = 0
KLD1 060526Z 12007KT 27/14 A30 RMK A01 T02710143  RH  045%=      5-min Rain = 0
KLD1 060527Z 12007KT 27/14 A30 RMK A01 T02700143  RH  045%=      5-min Rain = 0
KLD1 060528Z 12008KT 27/14 A30 RMK A01 T02700142  RH  045%=      5-min Rain = 0
KLD1 060529Z 12007KT 27/14 A30 RMK A01 T02700142  RH  045%=      5-min Rain = 0
KLD1 060530Z 12007KT 27/14 A30 RMK A01 T02710141  RH  045%=      5-min Rain = 0
KLD1 060531Z 12008KT 27/14 A30 RMK A01 T02700141  RH  045%=      5-min Rain = 0
KLD1 060532Z 12007KT 27/14 A30 RMK A01 T02700140  RH  045%=      5-min Rain = 0
KLD1 060533Z 12007KT 27/14 A30 RMK A01 T02700140  RH  045%=      5-min Rain = 0
KLD1 060534Z 12008KT 27/14 A30 RMK A01 T02700139  RH  045%=      5-min Rain = 0
KLD1 060535Z 12008KT 27/14 A30 RMK A01 T02700139  RH  045%=      5-min Rain = 0
KLD1 060536Z 13008KT 27/14 A30 RMK A01 T02700138  RH  044%=      5-min Rain = 0
KLD1 060537Z 13008KT 27/14 A30 RMK A01 T02700137  RH  044%=      5-min Rain = 0
KLD1 060538Z 13008KT 27/14 A30 RMK A01 T02700137  RH  044%=      5-min Rain = 0
KLD1 060539Z 13008KT 27/14 A30 RMK A01 T02690137  RH  044%=      5-min Rain = 0
KLD1 060540Z 13008KT 27/14 A30 RMK A01 T02690137  RH  044%=      5-min Rain = 0
KLD1 060541Z 13008KT 27/14 A30 RMK A01 T02680137  RH  044%=      5-min Rain = 0
KLD1 060542Z 13006KT 27/14 A30 RMK A01 T02670136  RH  044%=      5-min Rain = 0
KLD1 060543Z 13006KT 27/14 A30 RMK A01 T02670136  RH  045%=      5-min Rain = 0
KLD1 060544Z 13007KT 27/14 A3001 RMK A01 T02660136  RH  045%=      5-min Rain = 0
KLD1 060545Z 13007KT 27/14 A3001 RMK A01 T02650136  RH  045%=      5-min Rain = 0
KLD1 060546Z 13007KT 27/14 A3001 RMK A01 T02650136  RH  045%=      5-min Rain = 0
KLD1 060547Z 13008KT 26/14 A3001 RMK A01 T02640135  RH  045%=      5-min Rain = 0
KLD1 060548Z 13008KT 26/13 A3001 RMK A01 T02640134  RH  045%=      5-min Rain = 0
KLD1 060549Z 13007KT 26/13 A3001 RMK A01 T02640134  RH  045%=      5-min Rain = 0
KLD1 060550Z 13008KT 26/13 A3001 RMK A01 T02640134  RH  045%=      5-min Rain = 0
KLD1 060551Z 13008KT 26/13 A3001 RMK A01 T02640134  RH  044%=      5-min Rain = 0
KLD1 060552Z 13006KT 26/13 A3001 RMK A01 T02640133  RH  044%=      5-min Rain = 0
KLD1 060553Z 13006KT 26/13 A3001 RMK A01 T02640134  RH  044%=      5-min Rain = 0
KLD1 060554Z 13006KT 26/13 A3001 RMK A01 T02640134  RH  045%=      5-min Rain = 0
KLD1 060555Z 13005KT 26/13 A3001 RMK A01 T02640134  RH  045%=      5-min Rain = 0
KLD1 060556Z 14005KT 26/13 A3001 RMK A01 T02630134  RH  045%=      5-min Rain = 0
KLD1 060557Z 14005KT 26/13 A3001 RMK A01 T02620134  RH  045%=      5-min Rain = 0
KLD1 060558Z 13005KT 26/13 A3001 RMK A01 T02610134  RH  045%=      5-min Rain = 0
KLD1 060559Z 13006KT 26/13 A3001 RMK A01 T02610134  RH  046%=      5-min Rain = 0
KLD1 060600Z 13006KT 26/13 A3001 RMK A01 T02600134  RH  046%=      5-min Rain = 0
KLD1 060601Z 12006KT 26/13 A3001 RMK A01 T02600134  RH  045%=      5-min Rain = 0
KLD1 060602Z 13006KT 26/13 A3001 RMK A01 T02600133  RH  045%=      5-min Rain = 0
KLD1 060603Z 12006KT 26/13 A3001 RMK A01 T02610133  RH  045%=      5-min Rain = 0
KLD1 060604Z 13006KT 26/13 A3001 RMK A01 T02610133  RH  045%=      5-min Rain = 0
KLD1 060605Z 13006KT 26/13 A3001 RMK A01 T02610133  RH  045%=      5-min Rain = 0
KLD1 060606Z 13006KT 26/13 A3001 RMK A01 T02610134  RH  045%=      5-min Rain = 0
KLD1 060607Z 13006KT 26/13 A3001 RMK A01 T02600134  RH  046%=      5-min Rain = 0
KLD1 060608Z 13007KT 26/13 A3001 RMK A01 T02600134  RH  046%=      5-min Rain = 0
KLD1 060609Z 16008KT 26/13 A3001 RMK A01 T02590131  RH  045%=      5-min Rain = 0
KLD1 060610Z 16009KT 26/13 A3001 RMK A01 T02610126  RH  043%=      5-min Rain = 0
KLD1 060611Z 15008KT 27/13 A3001 RMK A01 T02650125  RH  042%=      5-min Rain = 0
KLD1 060612Z 15007KT 27/13 A3001 RMK A01 T02660127  RH  042%=      5-min Rain = 0
KLD1 060613Z 15008KT 27/13 A3001 RMK A01 T02660131  RH  043%=      5-min Rain = 0
KLD1 060614Z 16008KT 26/13 A3001 RMK A01 T02640130  RH  043%=      5-min Rain = 0
KLD1 060615Z 15007KT 26/13 A3001 RMK A01 T02630129  RH  043%=      5-min Rain = 0
KLD1 060616Z 15008KT 26/13 A3001 RMK A01 T02630130  RH  044%=      5-min Rain = 0
KLD1 060617Z 14008KT 26/13 A3001 RMK A01 T02620129  RH  044%=      5-min Rain = 0
KLD1 060618Z 14008KT 26/13 A3001 RMK A01 T02610128  RH  044%=      5-min Rain = 0
KLD1 060619Z 14008KT 26/13 A3001 RMK A01 T02610129  RH  044%=      5-min Rain = 0
KLD1 060620Z 14008KT 26/13 A3001 RMK A01 T02610129  RH  044%=      5-min Rain = 0
KLD1 060621Z 14008KT 26/13 A3001 RMK A01 T02610129  RH  044%=      5-min Rain = 0
KLD1 060622Z 14008KT 26/13 A3001 RMK A01 T02610128  RH  044%=      5-min Rain = 0
KLD1 060623Z 14007KT 26/13 A3001 RMK A01 T02620128  RH  044%=      5-min Rain = 0
KLD1 060624Z 14007KT 26/13 A3001 RMK A01 T02620129  RH  044%=      5-min Rain = 0
KLD1 060625Z 14006KT 26/13 A3001 RMK A01 T02610129  RH  044%=      5-min Rain = 0
KLD1 060626Z 14007KT 26/13 A3001 RMK A01 T02600129  RH  044%=      5-min Rain = 0
KLD1 060627Z 14007KT 26/13 A3001 RMK A01 T02590129  RH  045%=      5-min Rain = 0
KLD1 060628Z 14007KT 26/13 A3001 RMK A01 T02590130  RH  045%=      5-min Rain = 0
KLD1 060629Z 14007KT 26/13 A3001 RMK A01 T02580130  RH  045%=      5-min Rain = 0
KLD1 060630Z 14007KT 26/13 A3001 RMK A01 T02570130  RH  045%=      5-min Rain = 0
KLD1 060631Z 14007KT 26/13 A3001 RMK A01 T02570130  RH  045%=      5-min Rain = 0
KLD1 060632Z 14007KT 26/13 A3001 RMK A01 T02570130  RH  045%=      5-min Rain = 0
KLD1 060633Z 14007KT 26/13 A30 RMK A01 T02570129  RH  045%=      5-min Rain = 0
KLD1 060634Z 14008KT 26/13 A30 RMK A01 T02570129  RH  045%=      5-min Rain = 0
KLD1 060635Z 14007KT 26/13 A30 RMK A01 T02570129  RH  045%=      5-min Rain = 0
KLD1 060636Z 14007KT 26/13 A30 RMK A01 T02570128  RH  045%=      5-min Rain = 0
KLD1 060637Z 14006KT 26/13 A30 RMK A01 T02570129  RH  045%=      5-min Rain = 0
KLD1 060638Z 14007KT 26/13 A30 RMK A01 T02570129  RH  045%=      5-min Rain = 0
KLD1 060639Z 14007KT 26/13 A30 RMK A01 T02570129  RH  045%=      5-min Rain = 0
KLD1 060640Z 14007KT 26/13 A30 RMK A01 T02560129  RH  045%=      5-min Rain = 0
KLD1 060641Z 14006KT 26/13 A30 RMK A01 T02560129  RH  045%=      5-min Rain = 0
KLD1 060642Z 14006KT 26/13 A30 RMK A01 T02560129  RH  045%=      5-min Rain = 0
KLD1 060643Z 14007KT 26/13 A30 RMK A01 T02550129  RH  045%=      5-min Rain = 0
KLD1 060644Z 14006KT 26/13 A30 RMK A01 T02550129  RH  045%=      5-min Rain = 0
KLD1 060645Z 13006KT 26/13 A30 RMK A01 T02550129  RH  046%=      5-min Rain = 0
KLD1 060646Z 13007KT 25/13 A30 RMK A01 T02540129  RH  046%=      5-min Rain = 0
KLD1 060647Z 13008KT 25/13 A30 RMK A01 T02540129  RH  046%=      5-min Rain = 0
KLD1 060648Z 14007KT 25/13 A30 RMK A01 T02540129  RH  046%=      5-min Rain = 0
KLD1 060649Z 14007KT 25/13 A30 RMK A01 T02530129  RH  046%=      5-min Rain = 0
KLD1 060650Z 13007KT 25/13 A30 RMK A01 T02530129  RH  046%=      5-min Rain = 0
KLD1 060651Z 13007KT 25/13 A30 RMK A01 T02530129  RH  046%=      5-min Rain = 0
KLD1 060652Z 13007KT 25/13 A30 RMK A01 T02520129  RH  046%=      5-min Rain = 0
KLD1 060653Z 14006KT 25/13 A30 RMK A01 T02520129  RH  046%=      5-min Rain = 0
KLD1 060654Z 13006KT 25/13 A30 RMK A01 T02520129  RH  046%=      5-min Rain = 0
KLD1 060655Z 14007KT 25/13 A30 RMK A01 T02510129  RH  047%=      5-min Rain = 0
KLD1 060656Z 14007KT 25/13 A30 RMK A01 T02510128  RH  046%=      5-min Rain = 0
KLD1 060657Z 14007KT 25/13 A30 RMK A01 T02510127  RH  046%=      5-min Rain = 0
KLD1 060658Z 14007KT 25/13 A30 RMK A01 T02520128  RH  046%=      5-min Rain = 0
KLD1 060659Z 14007KT 25/13 A30 RMK A01 T02520128  RH  046%=      5-min Rain = 0
KLD1 060700Z 14007KT 25/13 A30 RMK A01 T02520127  RH  046%=      5-min Rain = 0
KLD1 060701Z 14007KT 25/13 A30 RMK A01 T02520127  RH  046%=      5-min Rain = 0
KLD1 060702Z 14007KT 25/13 A30 RMK A01 T02520127  RH  046%=      5-min Rain = 0
KLD1 060703Z 14007KT 25/13 A2999 RMK A01 T02520127  RH  046%=      5-min Rain = 0
KLD1 060704Z 14007KT 25/13 A2999 RMK A01 T02520128  RH  046%=      5-min Rain = 0
KLD1 060705Z 14008KT 25/13 A2999 RMK A01 T02510127  RH  046%=      5-min Rain = 0
KLD1 060706Z 14008KT 25/13 A2999 RMK A01 T02510127  RH  046%=      5-min Rain = 0
KLD1 060707Z 14007KT 25/13 A2999 RMK A01 T02510127  RH  046%=      5-min Rain = 0
KLD1 060708Z 15007KT 25/13 A2999 RMK A01 T02510128  RH  046%=      5-min Rain = 0
KLD1 060709Z 15006KT 25/13 A2999 RMK A01 T02510128  RH  046%=      5-min Rain = 0
KLD1 060710Z 16006KT 25/13 A2999 RMK A01 T02500127  RH  046%=      5-min Rain = 0
KLD1 060711Z 16006KT 25/13 A2999 RMK A01 T02500127  RH  046%=      5-min Rain = 0
KLD1 060712Z 16006KT 25/13 A2999 RMK A01 T02500126  RH  046%=      5-min Rain = 0
KLD1 060713Z 16006KT 25/13 A2999 RMK A01 T02500126  RH  046%=      5-min Rain = 0
KLD1 060714Z 15007KT 25/12 A2999 RMK A01 T02500124  RH  045%=      5-min Rain = 0
KLD1 060715Z 15008KT 25/12 A2999 RMK A01 T02520123  RH  045%=      5-min Rain = 0
KLD1 060716Z 15008KT 25/12 A2999 RMK A01 T02520124  RH  045%=      5-min Rain = 0
KLD1 060717Z 16008KT 25/12 A2999 RMK A01 T02520123  RH  045%=      5-min Rain = 0
KLD1 060718Z 16009KT 25/12 A2999 RMK A01 T02520123  RH  044%=      5-min Rain = 0
KLD1 060719Z 16008KT 25/12 A2999 RMK A01 T02530122  RH  044%=      5-min Rain = 0
KLD1 060720Z 16008KT 25/12 A2999 RMK A01 T02530122  RH  044%=      5-min Rain = 0
KLD1 060721Z 16008KT 25/12 A2999 RMK A01 T02530123  RH  044%=      5-min Rain = 0
KLD1 060722Z 16008KT 25/12 A2999 RMK A01 T02530123  RH  044%=      5-min Rain = 0
KLD1 060723Z 16009KT 25/12 A2999 RMK A01 T02530122  RH  044%=      5-min Rain = 0
KLD1 060724Z 16008KT 25/12 A2999 RMK A01 T02520123  RH  044%=      5-min Rain = 0
KLD1 060725Z 16008KT 25/12 A2999 RMK A01 T02520123  RH  045%=      5-min Rain = 0
KLD1 060726Z 16008KT 25/12 A2999 RMK A01 T02510123  RH  045%=      5-min Rain = 0
KLD1 060727Z 16008KT 25/12 A2999 RMK A01 T02500123  RH  045%=      5-min Rain = 0
KLD1 060728Z 16009KT 25/12 A2999 RMK A01 T02500123  RH  045%=      5-min Rain = 0
KLD1 060729Z 16009KT 25/12 A2999 RMK A01 T02500124  RH  045%=      5-min Rain = 0
KLD1 060730Z 16010KT 25/12 A2999 RMK A01 T02490123  RH  045%=      5-min Rain = 0
KLD1 060731Z 16011KT 25/12 A2999 RMK A01 T02490122  RH  045%=      5-min Rain = 0
KLD1 060732Z 17009KT 25/12 A2999 RMK A01 T02500121  RH  045%=      5-min Rain = 0
KLD1 060733Z 17009KT 25/12 A2999 RMK A01 T02510121  RH  044%=      5-min Rain = 0
KLD1 060734Z 16009KT 25/12 A2999 RMK A01 T02510121  RH  044%=      5-min Rain = 0
KLD1 060735Z 17009KT 25/12 A2999 RMK A01 T02510122  RH  044%=      5-min Rain = 0
KLD1 060736Z 16009KT 25/12 A2999 RMK A01 T02510121  RH  044%=      5-min Rain = 0
KLD1 060737Z 16008KT 25/12 A2999 RMK A01 T02500121  RH  045%=      5-min Rain = 0
KLD1 060738Z 17008KT 25/12 A2999 RMK A01 T02500121  RH  045%=      5-min Rain = 0
KLD1 060739Z 17008KT 25/12 A2999 RMK A01 T02490121  RH  045%=      5-min Rain = 0
KLD1 060740Z 17008KT 25/12 A2999 RMK A01 T02490122  RH  045%=      5-min Rain = 0
KLD1 060741Z 17007KT 25/12 A2999 RMK A01 T02490121  RH  045%=      5-min Rain = 0
KLD1 060742Z 17007KT 25/12 A2999 RMK A01 T02480121  RH  045%=      5-min Rain = 0
KLD1 060743Z 17007KT 25/12 A2999 RMK A01 T02480121  RH  045%=      5-min Rain = 0
KLD1 060744Z 18007KT 25/12 A30 RMK A01 T02480121  RH  045%=      5-min Rain = 0
KLD1 060745Z 18008KT 25/12 A30 RMK A01 T02480120  RH  045%=      5-min Rain = 0
KLD1 060746Z 18009KT 25/12 A30 RMK A01 T02480119  RH  044%=      5-min Rain = 0
KLD1 060747Z 18007KT 25/12 A30 RMK A01 T02500118  RH  044%=      5-min Rain = 0
KLD1 060748Z 18008KT 25/12 A30 RMK A01 T02500118  RH  044%=      5-min Rain = 0
KLD1 060749Z 19009KT 25/12 A30 RMK A01 T02510118  RH  044%=      5-min Rain = 0
KLD1 060750Z 19008KT 25/12 A30 RMK A01 T02510118  RH  043%=      5-min Rain = 0
KLD1 060751Z 19009KT 25/12 A30 RMK A01 T02520117  RH  043%=      5-min Rain = 0
KLD1 060752Z 19009KT 25/12 A30 RMK A01 T02530117  RH  043%=      5-min Rain = 0
KLD1 060753Z 19008KT 25/12 A30 RMK A01 T02540117  RH  042%=      5-min Rain = 0
KLD1 060754Z 18008KT 25/12 A30 RMK A01 T02540117  RH  042%=      5-min Rain = 0
KLD1 060755Z 18010KT 25/12 A30 RMK A01 T02540117  RH  042%=      5-min Rain = 0
KLD1 060756Z 18008KT 26/12 A30 RMK A01 T02550117  RH  042%=      5-min Rain = 0
KLD1 060757Z 18008KT 26/12 A30 RMK A01 T02550117  RH  042%=      5-min Rain = 0
KLD1 060758Z 18011KT 26/12 A30 RMK A01 T02550117  RH  042%=      5-min Rain = 0
KLD1 060759Z 19009KT 26/12 A30 RMK A01 T02550117  RH  042%=      5-min Rain = 0
KLD1 060800Z 19010KT 26/12 A30 RMK A01 T02560117  RH  042%=      5-min Rain = 0
KLD1 060801Z 19011KT 26/12 A30 RMK A01 T02570117  RH  042%=      5-min Rain = 0
KLD1 060802Z 19009KT 26/12 A30 RMK A01 T02570117  RH  042%=      5-min Rain = 0
KLD1 060803Z 19009KT 26/12 A30 RMK A01 T02580117  RH  041%=      5-min Rain = 0
KLD1 060804Z 19010KT 26/12 A30 RMK A01 T02580117  RH  042%=      5-min Rain = 0
KLD1 060805Z 19009KT 26/12 A30 RMK A01 T02580117  RH  042%=      5-min Rain = 0
KLD1 060806Z 19009KT 26/12 A30 RMK A01 T02580118  RH  042%=      5-min Rain = 0
KLD1 060807Z 19009KT 26/12 A30 RMK A01 T02580118  RH  042%=      5-min Rain = 0
KLD1 060808Z 19007KT 26/12 A30 RMK A01 T02580118  RH  042%=      5-min Rain = 0
KLD1 060809Z 18008KT 26/12 A30 RMK A01 T02580118  RH  042%=      5-min Rain = 0
KLD1 060810Z 19009KT 26/12 A30 RMK A01 T02570118  RH  042%=      5-min Rain = 0
KLD1 060811Z 18008KT 26/12 A30 RMK A01 T02570118  RH  042%=      5-min Rain = 0
KLD1 060812Z 18009KT 26/12 A30 RMK A01 T02570119  RH  042%=      5-min Rain = 0
KLD1 060813Z 18008KT 26/12 A30 RMK A01 T02570119  RH  042%=      5-min Rain = 0
KLD1 060814Z 18008KT 26/12 A30 RMK A01 T02560119  RH  042%=      5-min Rain = 0
KLD1 060815Z 18008KT 26/12 A30 RMK A01 T02560119  RH  042%=      5-min Rain = 0
KLD1 060816Z 18007KT 26/12 A30 RMK A01 T02560119  RH  042%=      5-min Rain = 0
KLD1 060817Z 18007KT 26/12 A30 RMK A01 T02560119  RH  043%=      5-min Rain = 0
KLD1 060818Z 18007KT 26/12 A30 RMK A01 T02550120  RH  043%=      5-min Rain = 0
KLD1 060819Z 18008KT 26/12 A30 RMK A01 T02550120  RH  043%=      5-min Rain = 0
KLD1 060820Z 18008KT 26/12 A30 RMK A01 T02550120  RH  043%=      5-min Rain = 0
KLD1 060821Z 18007KT 26/12 A30 RMK A01 T02550119  RH  043%=      5-min Rain = 0
KLD1 060822Z 18008KT 26/12 A30 RMK A01 T02550119  RH  043%=      5-min Rain = 0
KLD1 060823Z 18008KT 26/12 A30 RMK A01 T02550120  RH  043%=      5-min Rain = 0
KLD1 060824Z 19007KT 26/12 A30 RMK A01 T02550120  RH  043%=      5-min Rain = 0
KLD1 060825Z 18007KT 26/12 A30 RMK A01 T02550120  RH  043%=      5-min Rain = 0
KLD1 060826Z 19008KT 26/12 A30 RMK A01 T02550120  RH  043%=      5-min Rain = 0
KLD1 060827Z 19009KT 26/12 A30 RMK A01 T02560119  RH  043%=      5-min Rain = 0
KLD1 060828Z 19008KT 26/12 A30 RMK A01 T02570120  RH  042%=      5-min Rain = 0
KLD1 060829Z 19008KT 26/12 A30 RMK A01 T02570120  RH  042%=      5-min Rain = 0
KLD1 060830Z 19007KT 26/12 A30 RMK A01 T02570120  RH  042%=      5-min Rain = 0
KLD1 060831Z 19008KT 26/12 A30 RMK A01 T02570120  RH  042%=      5-min Rain = 0
KLD1 060832Z 19008KT 26/12 A30 RMK A01 T02570120  RH  042%=      5-min Rain = 0
KLD1 060833Z 19008KT 26/12 A30 RMK A01 T02580120  RH  042%=      5-min Rain = 0
KLD1 060834Z 19009KT 26/12 A30 RMK A01 T02580120  RH  042%=      5-min Rain = 0
KLD1 060835Z 19008KT 26/12 A30 RMK A01 T02580121  RH  042%=      5-min Rain = 0
KLD1 060836Z 19008KT 26/12 A30 RMK A01 T02580121  RH  042%=      5-min Rain = 0
KLD1 060837Z 19009KT 26/12 A30 RMK A01 T02590121  RH  042%=      5-min Rain = 0
KLD1 060838Z 19008KT 26/12 A30 RMK A01 T02590122  RH  042%=      5-min Rain = 0
KLD1 060839Z 19010KT 26/12 A30 RMK A01 T02590122  RH  043%=      5-min Rain = 0
KLD1 060840Z 19009KT 26/12 A30 RMK A01 T02590122  RH  042%=      5-min Rain = 0
KLD1 060841Z 19009KT 26/12 A30 RMK A01 T02590122  RH  042%=      5-min Rain = 0
KLD1 060842Z 19008KT 26/12 A30 RMK A01 T02590122  RH  042%=      5-min Rain = 0
KLD1 060843Z 19009KT 26/12 A3001 RMK A01 T02590123  RH  043%=      5-min Rain = 0
KLD1 060844Z 20009KT 26/12 A3001 RMK A01 T02590123  RH  043%=      5-min Rain = 0
KLD1 060845Z 19009KT 26/12 A3001 RMK A01 T02590123  RH  043%=      5-min Rain = 0
KLD1 060846Z 20008KT 26/12 A3001 RMK A01 T02580123  RH  043%=      5-min Rain = 0
KLD1 060847Z 20008KT 26/12 A3001 RMK A01 T02580123  RH  043%=      5-min Rain = 0
KLD1 060848Z 19009KT 26/12 A3001 RMK A01 T02580123  RH  043%=      5-min Rain = 0
KLD1 060849Z 19008KT 26/12 A3001 RMK A01 T02580123  RH  043%=      5-min Rain = 0
KLD1 060850Z 19008KT 26/12 A3001 RMK A01 T02570124  RH  043%=      5-min Rain = 0
KLD1 060851Z 19009KT 26/12 A3001 RMK A01 T02570123  RH  043%=      5-min Rain = 0
KLD1 060852Z 19008KT 26/12 A3001 RMK A01 T02570124  RH  044%=      5-min Rain = 0
KLD1 060853Z 19007KT 26/12 A3001 RMK A01 T02570124  RH  044%=      5-min Rain = 0
KLD1 060854Z 19008KT 26/12 A3001 RMK A01 T02560124  RH  044%=      5-min Rain = 0
KLD1 060855Z 19007KT 26/12 A3001 RMK A01 T02550124  RH  044%=      5-min Rain = 0
KLD1 060856Z 19008KT 26/12 A3001 RMK A01 T02550124  RH  044%=      5-min Rain = 0
KLD1 060857Z 19008KT 25/12 A3001 RMK A01 T02540124  RH  044%=      5-min Rain = 0
KLD1 060858Z 19008KT 25/12 A3001 RMK A01 T02540124  RH  044%=      5-min Rain = 0
KLD1 060859Z 19008KT 25/12 A3001 RMK A01 T02540124  RH  044%=      5-min Rain = 0
KLD1 060900Z 19008KT 25/12 A3001 RMK A01 T02540124  RH  044%=      5-min Rain = 0
KLD1 060901Z 19008KT 25/12 A3001 RMK A01 T02540124  RH  044%=      5-min Rain = 0
KLD1 060902Z 19008KT 25/12 A3001 RMK A01 T02540124  RH  044%=      5-min Rain = 0
KLD1 060903Z 19008KT 25/12 A3001 RMK A01 T02540124  RH  044%=      5-min Rain = 0
KLD1 060904Z 20008KT 25/12 A3001 RMK A01 T02540124  RH  045%=      5-min Rain = 0
KLD1 060905Z 20008KT 25/13 A3001 RMK A01 T02530125  RH  045%=      5-min Rain = 0
KLD1 060906Z 20008KT 25/13 A3001 RMK A01 T02530125  RH  045%=      5-min Rain = 0
KLD1 060907Z 19008KT 25/13 A3001 RMK A01 T02520125  RH  045%=      5-min Rain = 0
KLD1 060908Z 20008KT 25/13 A3001 RMK A01 T02520125  RH  045%=      5-min Rain = 0
KLD1 060909Z 19008KT 25/13 A3001 RMK A01 T02510125  RH  045%=      5-min Rain = 0
KLD1 060910Z 19007KT 25/13 A3001 RMK A01 T02510125  RH  046%=      5-min Rain = 0
KLD1 060911Z 19008KT 25/13 A3001 RMK A01 T02500125  RH  046%=      5-min Rain = 0
KLD1 060912Z 19008KT 25/13 A3001 RMK A01 T02490125  RH  046%=      5-min Rain = 0
KLD1 060913Z 19008KT 25/13 A3001 RMK A01 T02490125  RH  046%=      5-min Rain = 0
KLD1 060914Z 19008KT 25/13 A3001 RMK A01 T02490125  RH  046%=      5-min Rain = 0
KLD1 060915Z 19008KT 25/13 A3001 RMK A01 T02490126  RH  046%=      5-min Rain = 0
KLD1 060916Z 19008KT 25/13 A3001 RMK A01 T02480126  RH  046%=      5-min Rain = 0
KLD1 060917Z 19008KT 25/13 A3001 RMK A01 T02480126  RH  046%=      5-min Rain = 0
KLD1 060918Z 19008KT 25/13 A3001 RMK A01 T02480126  RH  047%=      5-min Rain = 0
KLD1 060919Z 19008KT 25/13 A3001 RMK A01 T02470126  RH  047%=      5-min Rain = 0
KLD1 060920Z 19008KT 25/13 A3001 RMK A01 T02470126  RH  047%=      5-min Rain = 0
KLD1 060921Z 19008KT 25/13 A3001 RMK A01 T02460126  RH  047%=      5-min Rain = 0
KLD1 060922Z 19008KT 25/13 A3001 RMK A01 T02460126  RH  047%=      5-min Rain = 0
KLD1 060923Z 19008KT 25/13 A3001 RMK A01 T02460127  RH  047%=      5-min Rain = 0
KLD1 060924Z 20008KT 25/13 A3001 RMK A01 T02460127  RH  047%=      5-min Rain = 0
KLD1 060925Z 19008KT 25/13 A3001 RMK A01 T02460127  RH  047%=      5-min Rain = 0
KLD1 060926Z 19008KT 25/13 A3001 RMK A01 T02450127  RH  048%=      5-min Rain = 0
KLD1 060927Z 19008KT 25/13 A30 RMK A01 T02450127  RH  048%=      5-min Rain = 0
KLD1 060928Z 19008KT 25/13 A30 RMK A01 T02460127  RH  047%=      5-min Rain = 0
KLD1 060929Z 19008KT 25/13 A30 RMK A01 T02460126  RH  047%=      5-min Rain = 0
KLD1 060930Z 19008KT 25/13 A30 RMK A01 T02470127  RH  047%=      5-min Rain = 0
KLD1 060931Z 19008KT 25/13 A30 RMK A01 T02470127  RH  047%=      5-min Rain = 0
KLD1 060932Z 19008KT 25/13 A30 RMK A01 T02470127  RH  047%=      5-min Rain = 0
KLD1 060933Z 19007KT 25/13 A30 RMK A01 T02470127  RH  047%=      5-min Rain = 0
KLD1 060934Z 19008KT 25/13 A30 RMK A01 T02460127  RH  047%=      5-min Rain = 0
KLD1 060935Z 19008KT 25/13 A30 RMK A01 T02460127  RH  048%=      5-min Rain = 0
KLD1 060936Z 19008KT 25/13 A30 RMK A01 T02460128  RH  048%=      5-min Rain = 0
KLD1 060937Z 19008KT 25/13 A30 RMK A01 T02460128  RH  048%=      5-min Rain = 0
KLD1 060938Z 19009KT 25/13 A30 RMK A01 T02460128  RH  048%=      5-min Rain = 0
KLD1 060939Z 19008KT 25/13 A30 RMK A01 T02460128  RH  048%=      5-min Rain = 0
KLD1 060940Z 19008KT 25/13 A30 RMK A01 T02460128  RH  048%=      5-min Rain = 0
KLD1 060941Z 19008KT 25/13 A30 RMK A01 T02460127  RH  048%=      5-min Rain = 0
KLD1 060942Z 19008KT 25/13 A30 RMK A01 T02460127  RH  048%=      5-min Rain = 0
KLD1 060943Z 19009KT 25/13 A3001 RMK A01 T02460128  RH  048%=      5-min Rain = 0
KLD1 060944Z 19008KT 25/13 A3001 RMK A01 T02460128  RH  048%=      5-min Rain = 0
KLD1 060945Z 19008KT 25/13 A3001 RMK A01 T02460128  RH  048%=      5-min Rain = 0
KLD1 060946Z 19008KT 25/13 A3001 RMK A01 T02460128  RH  048%=      5-min Rain = 0
KLD1 060947Z 19008KT 25/13 A3001 RMK A01 T02460128  RH  048%=      5-min Rain = 0
KLD1 060948Z 19008KT 25/13 A3001 RMK A01 T02460129  RH  048%=      5-min Rain = 0
KLD1 060949Z 19008KT 25/13 A3001 RMK A01 T02460129  RH  048%=      5-min Rain = 0
KLD1 060950Z 19008KT 25/13 A3001 RMK A01 T02450129  RH  048%=      5-min Rain = 0
KLD1 060951Z 19008KT 25/13 A3001 RMK A01 T02450129  RH  048%=      5-min Rain = 0
KLD1 060952Z 19008KT 25/13 A3001 RMK A01 T02450129  RH  048%=      5-min Rain = 0
KLD1 060953Z 19009KT 25/13 A3001 RMK A01 T02450130  RH  048%=      5-min Rain = 0
KLD1 060954Z 19008KT 25/13 A3001 RMK A01 T02450129  RH  048%=      5-min Rain = 0
KLD1 060955Z 19008KT 25/13 A3001 RMK A01 T02450130  RH  048%=      5-min Rain = 0
KLD1 060956Z 19009KT 25/13 A3001 RMK A01 T02450130  RH  049%=      5-min Rain = 0
KLD1 060957Z 18008KT 25/13 A3001 RMK A01 T02450130  RH  049%=      5-min Rain = 0
KLD1 060958Z 18007KT 25/13 A3001 RMK A01 T02450129  RH  049%=      5-min Rain = 0
KLD1 060959Z 18007KT 25/13 A3001 RMK A01 T02450130  RH  049%=      5-min Rain = 0
KLD1 061000Z 17007KT 24/13 A3001 RMK A01 T02440129  RH  049%=      5-min Rain = 0
KLD1 061001Z 17007KT 24/13 A3001 RMK A01 T02440130  RH  049%=      5-min Rain = 0
KLD1 061002Z 17007KT 24/13 A3001 RMK A01 T02430130  RH  049%=      5-min Rain = 0
KLD1 061003Z 17007KT 24/13 A3001 RMK A01 T02430130  RH  049%=      5-min Rain = 0
KLD1 061004Z 17007KT 24/13 A3001 RMK A01 T02420130  RH  049%=      5-min Rain = 0
KLD1 061005Z 17006KT 24/13 A3001 RMK A01 T02420130  RH  049%=      5-min Rain = 0
KLD1 061006Z 17006KT 24/13 A3001 RMK A01 T02420129  RH  049%=      5-min Rain = 0
KLD1 061007Z 17006KT 24/13 A3001 RMK A01 T02410129  RH  050%=      5-min Rain = 0
KLD1 061008Z 17006KT 24/13 A3001 RMK A01 T02410129  RH  050%=      5-min Rain = 0
KLD1 061009Z 17007KT 24/13 A3001 RMK A01 T02400129  RH  050%=      5-min Rain = 0
KLD1 061010Z 18007KT 24/13 A3001 RMK A01 T02400129  RH  050%=      5-min Rain = 0
KLD1 061011Z 18007KT 24/13 A3001 RMK A01 T02390129  RH  050%=      5-min Rain = 0
KLD1 061012Z 18007KT 24/13 A3001 RMK A01 T02390129  RH  050%=      5-min Rain = 0
KLD1 061013Z 18008KT 24/13 A3001 RMK A01 T02390129  RH  050%=      5-min Rain = 0
KLD1 061014Z 18007KT 24/13 A3001 RMK A01 T02380129  RH  050%=      5-min Rain = 0
KLD1 061015Z 18007KT 24/13 A3001 RMK A01 T02380129  RH  050%=      5-min Rain = 0
KLD1 061016Z 18007KT 24/13 A3001 RMK A01 T02380129  RH  050%=      5-min Rain = 0
KLD1 061017Z 18007KT 24/13 A3001 RMK A01 T02380129  RH  051%=      5-min Rain = 0
KLD1 061018Z 18008KT 24/13 A3001 RMK A01 T02380129  RH  051%=      5-min Rain = 0
KLD1 061019Z 18007KT 24/13 A3001 RMK A01 T02380129  RH  051%=      5-min Rain = 0
KLD1 061020Z 18008KT 24/13 A3001 RMK A01 T02380129  RH  051%=      5-min Rain = 0
KLD1 061021Z 18007KT 24/13 A3001 RMK A01 T02380129  RH  051%=      5-min Rain = 0
KLD1 061022Z 18008KT 24/13 A3001 RMK A01 T02380129  RH  051%=      5-min Rain = 0
KLD1 061023Z 18008KT 24/13 A3001 RMK A01 T02370130  RH  051%=      5-min Rain = 0
KLD1 061024Z 19007KT 24/13 A3001 RMK A01 T02370130  RH  051%=      5-min Rain = 0
KLD1 061025Z 19007KT 24/13 A3001 RMK A01 T02370129  RH  051%=      5-min Rain = 0
KLD1 061026Z 19008KT 24/13 A3001 RMK A01 T02370130  RH  051%=      5-min Rain = 0
KLD1 061027Z 19008KT 24/13 A3001 RMK A01 T02370129  RH  051%=      5-min Rain = 0
KLD1 061028Z 19007KT 24/13 A3001 RMK A01 T02370129  RH  051%=      5-min Rain = 0
KLD1 061029Z 19007KT 24/13 A3001 RMK A01 T02370129  RH  051%=      5-min Rain = 0
KLD1 061030Z 19008KT 24/13 A3001 RMK A01 T02370129  RH  051%=      5-min Rain = 0
KLD1 061031Z 19008KT 24/13 A3001 RMK A01 T02370129  RH  051%=      5-min Rain = 0
KLD1 061032Z 19007KT 24/13 A3001 RMK A01 T02370129  RH  051%=      5-min Rain = 0
KLD1 061033Z 20008KT 24/13 A3001 RMK A01 T02370129  RH  051%=      5-min Rain = 0
KLD1 061034Z 19007KT 24/13 A3001 RMK A01 T02360129  RH  051%=      5-min Rain = 0
KLD1 061035Z 20007KT 24/13 A3001 RMK A01 T02360129  RH  051%=      5-min Rain = 0
KLD1 061036Z 20007KT 24/13 A3001 RMK A01 T02360129  RH  051%=      5-min Rain = 0
KLD1 061037Z 19008KT 24/13 A3001 RMK A01 T02360129  RH  051%=      5-min Rain = 0
KLD1 061038Z 20008KT 24/13 A3001 RMK A01 T02360129  RH  051%=      5-min Rain = 0
KLD1 061039Z 19008KT 24/13 A3001 RMK A01 T02360129  RH  051%=      5-min Rain = 0
KLD1 061040Z 20008KT 24/13 A3001 RMK A01 T02360130  RH  051%=      5-min Rain = 0
KLD1 061041Z 20008KT 24/13 A3001 RMK A01 T02350130  RH  051%=      5-min Rain = 0
KLD1 061042Z 20008KT 24/13 A3001 RMK A01 T02350130  RH  052%=      5-min Rain = 0
KLD1 061043Z 20008KT 24/13 A3001 RMK A01 T02350130  RH  052%=      5-min Rain = 0
KLD1 061044Z 20008KT 24/13 A3001 RMK A01 T02350130  RH  052%=      5-min Rain = 0
KLD1 061045Z 20008KT 24/13 A3001 RMK A01 T02350130  RH  052%=      5-min Rain = 0
KLD1 061046Z 19008KT 23/13 A3001 RMK A01 T02340130  RH  052%=      5-min Rain = 0
KLD1 061047Z 19008KT 23/13 A3001 RMK A01 T02340130  RH  052%=      5-min Rain = 0
KLD1 061048Z 19008KT 23/13 A3001 RMK A01 T02340131  RH  052%=      5-min Rain = 0
KLD1 061049Z 19008KT 23/13 A3001 RMK A01 T02340131  RH  052%=      5-min Rain = 0
KLD1 061050Z 19009KT 23/13 A3001 RMK A01 T02340131  RH  052%=      5-min Rain = 0
KLD1 061051Z 19008KT 23/13 A3001 RMK A01 T02340131  RH  052%=      5-min Rain = 0
KLD1 061052Z 19008KT 23/13 A3001 RMK A01 T02340131  RH  052%=      5-min Rain = 0
KLD1 061053Z 19008KT 23/13 A3001 RMK A01 T02340131  RH  052%=      5-min Rain = 0
KLD1 061054Z 19008KT 23/13 A3001 RMK A01 T02340131  RH  052%=      5-min Rain = 0
KLD1 061055Z 20008KT 23/13 A3001 RMK A01 T02340131  RH  052%=      5-min Rain = 0
KLD1 061056Z 20008KT 23/13 A3001 RMK A01 T02340131  RH  052%=      5-min Rain = 0
KLD1 061057Z 20008KT 23/13 A3001 RMK A01 T02340132  RH  052%=      5-min Rain = 0
KLD1 061058Z 20008KT 23/13 A3001 RMK A01 T02340132  RH  053%=      5-min Rain = 0
KLD1 061059Z 20007KT 23/13 A3001 RMK A01 T02340132  RH  053%=      5-min Rain = 0
KLD1 061100Z 20008KT 23/13 A3001 RMK A01 T02330132  RH  053%=      5-min Rain = 0
KLD1 061101Z 20007KT 23/13 A3001 RMK A01 T02330132  RH  053%=      5-min Rain = 0
KLD1 061102Z 20008KT 23/13 A3001 RMK A01 T02320132  RH  053%=      5-min Rain = 0
KLD1 061103Z 20008KT 23/13 A3001 RMK A01 T02320132  RH  053%=      5-min Rain = 0
KLD1 061104Z 20008KT 23/13 A3001 RMK A01 T02320132  RH  053%=      5-min Rain = 0
KLD1 061105Z 20008KT 23/13 A3001 RMK A01 T02320132  RH  053%=      5-min Rain = 0
KLD1 061106Z 20008KT 23/13 A3001 RMK A01 T02320132  RH  053%=      5-min Rain = 0
KLD1 061107Z 20008KT 23/13 A3001 RMK A01 T02320132  RH  053%=      5-min Rain = 0
KLD1 061108Z 20008KT 23/13 A3001 RMK A01 T02320132  RH  053%=      5-min Rain = 0
KLD1 061109Z 20008KT 23/13 A3001 RMK A01 T02320132  RH  053%=      5-min Rain = 0
KLD1 061110Z 20008KT 23/13 A3001 RMK A01 T02320133  RH  053%=      5-min Rain = 0
KLD1 061111Z 19008KT 23/13 A3001 RMK A01 T02320133  RH  054%=      5-min Rain = 0
KLD1 061112Z 19007KT 23/13 A3001 RMK A01 T02320133  RH  054%=      5-min Rain = 0
KLD1 061113Z 19008KT 23/13 A3001 RMK A01 T02320133  RH  054%=      5-min Rain = 0
KLD1 061114Z 19008KT 23/13 A3001 RMK A01 T02320133  RH  054%=      5-min Rain = 0
KLD1 061115Z 20008KT 23/13 A3001 RMK A01 T02320133  RH  054%=      5-min Rain = 0
KLD1 061116Z 20008KT 23/13 A3001 RMK A01 T02320133  RH  054%=      5-min Rain = 0
KLD1 061117Z 20007KT 23/13 A3001 RMK A01 T02320133  RH  054%=      5-min Rain = 0
KLD1 061118Z 20007KT 23/13 A3001 RMK A01 T02320133  RH  054%=      5-min Rain = 0
KLD1 061119Z 20007KT 23/13 A3002 RMK A01 T02320134  RH  054%=      5-min Rain = 0
KLD1 061120Z 20007KT 23/13 A3002 RMK A01 T02320134  RH  054%=      5-min Rain = 0
KLD1 061121Z 20007KT 23/13 A3002 RMK A01 T02310134  RH  054%=      5-min Rain = 0
KLD1 061122Z 20007KT 23/13 A3002 RMK A01 T02310134  RH  054%=      5-min Rain = 0
KLD1 061123Z 20007KT 23/13 A3002 RMK A01 T02310134  RH  054%=      5-min Rain = 0
KLD1 061124Z 20007KT 23/14 A3002 RMK A01 T02310135  RH  055%=      5-min Rain = 0
KLD1 061125Z 20007KT 23/13 A3002 RMK A01 T02310134  RH  055%=      5-min Rain = 0
KLD1 061126Z 20007KT 23/14 A3002 RMK A01 T02310135  RH  055%=      5-min Rain = 0
KLD1 061127Z 20007KT 23/14 A3002 RMK A01 T02310135  RH  055%=      5-min Rain = 0
KLD1 061128Z 20006KT 23/14 A3002 RMK A01 T02310135  RH  055%=      5-min Rain = 0
KLD1 061129Z 20007KT 23/14 A3002 RMK A01 T02310135  RH  055%=      5-min Rain = 0
KLD1 061130Z 20006KT 23/14 A3002 RMK A01 T02310135  RH  055%=      5-min Rain = 0
KLD1 061131Z 21007KT 23/14 A3002 RMK A01 T02310135  RH  055%=      5-min Rain = 0
KLD1 061132Z 21007KT 23/14 A3002 RMK A01 T02300135  RH  055%=      5-min Rain = 0
KLD1 061133Z 21006KT 23/14 A3002 RMK A01 T02300135  RH  055%=      5-min Rain = 0
KLD1 061134Z 21006KT 23/14 A3002 RMK A01 T02300135  RH  055%=      5-min Rain = 0
KLD1 061135Z 21006KT 23/14 A3002 RMK A01 T02300136  RH  055%=      5-min Rain = 0
KLD1 061136Z 21006KT 23/14 A3002 RMK A01 T02300136  RH  055%=      5-min Rain = 0
KLD1 061137Z 21006KT 23/14 A3002 RMK A01 T02300135  RH  055%=      5-min Rain = 0
KLD1 061138Z 21006KT 23/14 A3002 RMK A01 T02300135  RH  055%=      5-min Rain = 0
KLD1 061139Z 21005KT 23/14 A3002 RMK A01 T02300135  RH  055%=      5-min Rain = 0
KLD1 061140Z 21006KT 23/14 A3002 RMK A01 T02300136  RH  055%=      5-min Rain = 0
KLD1 061141Z 21006KT 23/14 A3002 RMK A01 T02300136  RH  055%=      5-min Rain = 0
KLD1 061142Z 21006KT 23/14 A3002 RMK A01 T02300136  RH  055%=      5-min Rain = 0
KLD1 061143Z 21006KT 23/14 A3003 RMK A01 T02300136  RH  055%=      5-min Rain = 0
KLD1 061144Z 21006KT 23/14 A3003 RMK A01 T02300136  RH  055%=      5-min Rain = 0
KLD1 061145Z 21007KT 23/14 A3003 RMK A01 T02300136  RH  055%=      5-min Rain = 0
KLD1 061146Z 21006KT 23/14 A3003 RMK A01 T02300136  RH  055%=      5-min Rain = 0
KLD1 061147Z 21007KT 23/14 A3003 RMK A01 T02310136  RH  055%=      5-min Rain = 0
KLD1 061148Z 21006KT 23/14 A3003 RMK A01 T02310136  RH  055%=      5-min Rain = 0
KLD1 061149Z 21006KT 23/14 A3003 RMK A01 T02310135  RH  055%=      5-min Rain = 0
KLD1 061150Z 21006KT 23/14 A3003 RMK A01 T02310136  RH  055%=      5-min Rain = 0
KLD1 061151Z 21007KT 23/14 A3003 RMK A01 T02310136  RH  055%=      5-min Rain = 0
KLD1 061152Z 21006KT 23/14 A3003 RMK A01 T02320136  RH  055%=      5-min Rain = 0
KLD1 061153Z 21006KT 23/14 A3003 RMK A01 T02320135  RH  055%=      5-min Rain = 0
KLD1 061154Z 21006KT 23/14 A3003 RMK A01 T02320135  RH  054%=      5-min Rain = 0
KLD1 061155Z 22006KT 23/14 A3003 RMK A01 T02330136  RH  054%=      5-min Rain = 0
KLD1 061156Z 21006KT 23/14 A3003 RMK A01 T02330135  RH  054%=      5-min Rain = 0
KLD1 061157Z 21007KT 23/14 A3003 RMK A01 T02340135  RH  054%=      5-min Rain = 0
KLD1 061158Z 21007KT 23/14 A3003 RMK A01 T02340135  RH  054%=      5-min Rain = 0
KLD1 061159Z 21006KT 23/14 A3003 RMK A01 T02340136  RH  054%=      5-min Rain = 0
KLD1 061200Z 21006KT 23/14 A3003 RMK A01 T02340136  RH  054%=      5-min Rain = 0
KLD1 061201Z 21006KT 24/14 A3003 RMK A01 T02350136  RH  054%=      5-min Rain = 0
KLD1 061202Z 21007KT 24/14 A3003 RMK A01 T02350136  RH  054%=      5-min Rain = 0
KLD1 061203Z 21006KT 24/14 A3003 RMK A01 T02350136  RH  054%=      5-min Rain = 0
KLD1 061204Z 21007KT 24/14 A3003 RMK A01 T02350137  RH  054%=      5-min Rain = 0
KLD1 061205Z 21006KT 24/14 A3004 RMK A01 T02350137  RH  054%=      5-min Rain = 0
KLD1 061206Z 21006KT 24/14 A3004 RMK A01 T02350137  RH  054%=      5-min Rain = 0
KLD1 061207Z 21007KT 24/14 A3004 RMK A01 T02350137  RH  054%=      5-min Rain = 0
KLD1 061208Z 21006KT 24/14 A3004 RMK A01 T02350137  RH  054%=      5-min Rain = 0
KLD1 061209Z 21006KT 24/14 A3004 RMK A01 T02350138  RH  054%=      5-min Rain = 0
KLD1 061210Z 21006KT 24/14 A3004 RMK A01 T02350138  RH  054%=      5-min Rain = 0
KLD1 061211Z 21006KT 24/14 A3004 RMK A01 T02350138  RH  055%=      5-min Rain = 0
KLD1 061212Z 21006KT 24/14 A3004 RMK A01 T02350138  RH  055%=      5-min Rain = 0
KLD1 061213Z 21007KT 24/14 A3004 RMK A01 T02350138  RH  055%=      5-min Rain = 0
KLD1 061214Z 21007KT 24/14 A3004 RMK A01 T02350138  RH  055%=      5-min Rain = 0
KLD1 061215Z 21006KT 24/14 A3004 RMK A01 T02350138  RH  055%=      5-min Rain = 0
KLD1 061216Z 21007KT 24/14 A3004 RMK A01 T02350139  RH  055%=      5-min Rain = 0
KLD1 061217Z 21007KT 24/14 A3003 RMK A01 T02350139  RH  055%=      5-min Rain = 0
KLD1 061218Z 21007KT 24/14 A3003 RMK A01 T02350139  RH  055%=      5-min Rain = 0
KLD1 061219Z 20007KT 24/14 A3003 RMK A01 T02350139  RH  055%=      5-min Rain = 0
KLD1 061220Z 20007KT 24/14 A3003 RMK A01 T02350139  RH  055%=      5-min Rain = 0
KLD1 061221Z 20007KT 24/14 A3003 RMK A01 T02350140  RH  055%=      5-min Rain = 0
KLD1 061222Z 20007KT 23/14 A3003 RMK A01 T02340140  RH  055%=      5-min Rain = 0
KLD1 061223Z 20007KT 23/14 A3003 RMK A01 T02340140  RH  056%=      5-min Rain = 0
KLD1 061224Z 20007KT 23/14 A3003 RMK A01 T02340141  RH  056%=      5-min Rain = 0
KLD1 061225Z 20006KT 23/14 A3003 RMK A01 T02340141  RH  056%=      5-min Rain = 0
KLD1 061226Z 20007KT 23/14 A3003 RMK A01 T02330141  RH  056%=      5-min Rain = 0
KLD1 061227Z 20007KT 23/14 A3003 RMK A01 T02330141  RH  056%=      5-min Rain = 0
KLD1 061228Z 19007KT 23/14 A3003 RMK A01 T02330141  RH  056%=      5-min Rain = 0
KLD1 061229Z 20007KT 23/14 A3003 RMK A01 T02330141  RH  056%=      5-min Rain = 0
KLD1 061230Z 20007KT 23/14 A3003 RMK A01 T02330142  RH  056%=      5-min Rain = 0
KLD1 061231Z 20007KT 23/14 A3003 RMK A01 T02330141  RH  056%=      5-min Rain = 0
KLD1 061232Z 20007KT 23/14 A3003 RMK A01 T02330142  RH  056%=      5-min Rain = 0
KLD1 061233Z 19008KT 23/14 A3003 RMK A01 T02330142  RH  057%=      5-min Rain = 0
KLD1 061234Z 19007KT 23/14 A3003 RMK A01 T02330142  RH  057%=      5-min Rain = 0
KLD1 061235Z 19007KT 23/14 A3003 RMK A01 T02330142  RH  057%=      5-min Rain = 0
KLD1 061236Z 19007KT 23/14 A3003 RMK A01 T02330142  RH  057%=      5-min Rain = 0
KLD1 061237Z 19007KT 23/14 A3003 RMK A01 T02320142  RH  057%=      5-min Rain = 0
KLD1 061238Z 19007KT 23/14 A3003 RMK A01 T02320143  RH  057%=      5-min Rain = 0
KLD1 061239Z 19007KT 23/14 A3003 RMK A01 T02320143  RH  057%=      5-min Rain = 0
KLD1 061240Z 19007KT 23/14 A3003 RMK A01 T02320143  RH  057%=      5-min Rain = 0
KLD1 061241Z 19008KT 23/14 A3003 RMK A01 T02320143  RH  057%=      5-min Rain = 0
KLD1 061242Z 19007KT 23/14 A3003 RMK A01 T02320142  RH  057%=      5-min Rain = 0
KLD1 061243Z 19008KT 23/14 A3003 RMK A01 T02320143  RH  057%=      5-min Rain = 0
KLD1 061244Z 19007KT 23/14 A3003 RMK A01 T02320143  RH  057%=      5-min Rain = 0
KLD1 061245Z 18008KT 23/14 A3003 RMK A01 T02320143  RH  057%=      5-min Rain = 0
KLD1 061246Z 18008KT 23/14 A3003 RMK A01 T02320143  RH  057%=      5-min Rain = 0
KLD1 061247Z 18008KT 23/14 A3003 RMK A01 T02320143  RH  057%=      5-min Rain = 0
KLD1 061248Z 18008KT 23/14 A3003 RMK A01 T02320143  RH  057%=      5-min Rain = 0
KLD1 061249Z 19007KT 23/14 A3004 RMK A01 T02320143  RH  057%=      5-min Rain = 0
KLD1 061250Z 19008KT 23/14 A3004 RMK A01 T02320143  RH  057%=      5-min Rain = 0
KLD1 061251Z 19007KT 23/14 A3004 RMK A01 T02320143  RH  057%=      5-min Rain = 0
KLD1 061252Z 19007KT 23/14 A3004 RMK A01 T02320143  RH  057%=      5-min Rain = 0
KLD1 061253Z 19007KT 23/14 A3004 RMK A01 T02320144  RH  057%=      5-min Rain = 0
KLD1 061254Z 19007KT 23/14 A3004 RMK A01 T02320144  RH  058%=      5-min Rain = 0
KLD1 061255Z 19008KT 23/14 A3004 RMK A01 T02320144  RH  057%=      5-min Rain = 0
KLD1 061256Z 20007KT 23/14 A3004 RMK A01 T02320144  RH  057%=      5-min Rain = 0
KLD1 061257Z 20007KT 23/14 A3004 RMK A01 T02330143  RH  057%=      5-min Rain = 0
KLD1 061258Z 20006KT 23/14 A3004 RMK A01 T02330144  RH  057%=      5-min Rain = 0
KLD1 061259Z 20006KT 23/14 A3004 RMK A01 T02330144  RH  057%=      5-min Rain = 0
KLD1 061300Z 21007KT 23/15 A3004 RMK A01 T02330145  RH  058%=      5-min Rain = 0
KLD1 061301Z 21006KT 23/15 A3004 RMK A01 T02330145  RH  058%=      5-min Rain = 0
KLD1 061302Z 21006KT 23/15 A3004 RMK A01 T02330145  RH  058%=      5-min Rain = 0
KLD1 061303Z 20007KT 23/15 A3004 RMK A01 T02330145  RH  058%=      5-min Rain = 0
KLD1 061304Z 20007KT 23/15 A3004 RMK A01 T02330146  RH  058%=      5-min Rain = 0
KLD1 061305Z 20007KT 23/15 A3004 RMK A01 T02330146  RH  058%=      5-min Rain = 0
KLD1 061306Z 20007KT 23/15 A3004 RMK A01 T02330146  RH  058%=      5-min Rain = 0
KLD1 061307Z 20006KT 23/15 A3004 RMK A01 T02330146  RH  058%=      5-min Rain = 0
KLD1 061308Z 19007KT 23/15 A3004 RMK A01 T02330146  RH  058%=      5-min Rain = 0
KLD1 061309Z 19007KT 23/15 A3004 RMK A01 T02330146  RH  058%=      5-min Rain = 0
KLD1 061310Z 19008KT 23/15 A3004 RMK A01 T02330147  RH  058%=      5-min Rain = 0
KLD1 061311Z 19006KT 23/15 A3004 RMK A01 T02330147  RH  058%=      5-min Rain = 0
KLD1 061312Z 19007KT 23/15 A3004 RMK A01 T02340147  RH  058%=      5-min Rain = 0
KLD1 061313Z 19008KT 23/15 A3004 RMK A01 T02340147  RH  058%=      5-min Rain = 0
KLD1 061314Z 19008KT 23/15 A3004 RMK A01 T02340147  RH  058%=      5-min Rain = 0
KLD1 061315Z 19008KT 23/15 A3004 RMK A01 T02340147  RH  058%=      5-min Rain = 0
KLD1 061316Z 19008KT 24/15 A3004 RMK A01 T02350148  RH  058%=      5-min Rain = 0
KLD1 061317Z 19008KT 24/15 A3004 RMK A01 T02350148  RH  058%=      5-min Rain = 0
KLD1 061318Z 18009KT 24/15 A3004 RMK A01 T02360148  RH  058%=      5-min Rain = 0
KLD1 061319Z 19009KT 24/15 A3004 RMK A01 T02360148  RH  058%=      5-min Rain = 0
KLD1 061320Z 18009KT 24/15 A3004 RMK A01 T02360148  RH  058%=      5-min Rain = 0
KLD1 061321Z 18009KT 24/15 A3004 RMK A01 T02370149  RH  058%=      5-min Rain = 0
KLD1 061322Z 18008KT 24/15 A3004 RMK A01 T02380149  RH  058%=      5-min Rain = 0
KLD1 061323Z 18009KT 24/15 A3004 RMK A01 T02380150  RH  058%=      5-min Rain = 0
KLD1 061324Z 18009KT 24/15 A3004 RMK A01 T02380150  RH  058%=      5-min Rain = 0
KLD1 061325Z 18009KT 24/15 A3004 RMK A01 T02380149  RH  057%=      5-min Rain = 0
KLD1 061326Z 18010KT 24/15 A3004 RMK A01 T02390149  RH  057%=      5-min Rain = 0
KLD1 061327Z 18008KT 24/15 A3004 RMK A01 T02400151  RH  057%=      5-min Rain = 0
KLD1 061328Z 18009KT 24/15 A3004 RMK A01 T02400150  RH  057%=      5-min Rain = 0
KLD1 061329Z 18009KT 24/15 A3004 RMK A01 T02400150  RH  057%=      5-min Rain = 0
KLD1 061330Z 19009KT 24/15 A3004 RMK A01 T02410151  RH  057%=      5-min Rain = 0
KLD1 061331Z 19009KT 24/15 A3004 RMK A01 T02410150  RH  057%=      5-min Rain = 0
KLD1 061332Z 18008KT 24/15 A3004 RMK A01 T02420151  RH  057%=      5-min Rain = 0
KLD1 061333Z 19009KT 24/15 A3004 RMK A01 T02420151  RH  057%=      5-min Rain = 0
KLD1 061334Z 19009KT 24/15 A3004 RMK A01 T02420150  RH  056%=      5-min Rain = 0
KLD1 061335Z 18009KT 24/15 A3004 RMK A01 T02430152  RH  057%=      5-min Rain = 0
KLD1 061336Z 19010KT 24/15 A3004 RMK A01 T02430150  RH  056%=      5-min Rain = 0
KLD1 061337Z 19011KT 24/15 A3004 RMK A01 T02430150  RH  056%=      5-min Rain = 0
KLD1 061338Z 19011KT 24/15 A3004 RMK A01 T02440150  RH  056%=      5-min Rain = 0
KLD1 061339Z 18010KT 24/15 A3004 RMK A01 T02440150  RH  056%=      5-min Rain = 0
KLD1 061340Z 18010KT 25/15 A3004 RMK A01 T02450149  RH  055%=      5-min Rain = 0
KLD1 061341Z 19012KT 25/15 A3004 RMK A01 T02450150  RH  055%=      5-min Rain = 0
KLD1 061342Z 18010KT 25/15 A3004 RMK A01 T02450150  RH  056%=      5-min Rain = 0
KLD1 061343Z 18011G16KT 25/15 A3004 RMK A01 T02450152  RH  056%=      5-min Rain = 0
KLD1 061344Z 19012KT 25/15 A3004 RMK A01 T02460151  RH  056%=      5-min Rain = 0
KLD1 061345Z 18013KT 25/15 A3004 RMK A01 T02460150  RH  055%=      5-min Rain = 0
KLD1 061346Z 19012KT 25/15 A3004 RMK A01 T02470150  RH  055%=      5-min Rain = 0
KLD1 061347Z 18011KT 25/15 A3004 RMK A01 T02480150  RH  055%=      5-min Rain = 0
KLD1 061348Z 18011KT 25/15 A3004 RMK A01 T02480151  RH  055%=      5-min Rain = 0
KLD1 061349Z 19011KT 25/15 A3004 RMK A01 T02480151  RH  055%=      5-min Rain = 0
KLD1 061350Z 18011KT 25/15 A3004 RMK A01 T02490152  RH  055%=      5-min Rain = 0
KLD1 061351Z 19012G17KT 25/15 A3004 RMK A01 T02500152  RH  055%=      5-min Rain = 0
KLD1 061352Z 19011KT 25/15 A3004 RMK A01 T02500152  RH  054%=      5-min Rain = 0
KLD1 061353Z 19013G18KT 25/15 A3004 RMK A01 T02510151  RH  054%=      5-min Rain = 0
KLD1 061354Z 19016KT 25/15 A3004 RMK A01 T02520150  RH  053%=      5-min Rain = 0
KLD1 061355Z 18015KT 25/15 A3004 RMK A01 T02520150  RH  053%=      5-min Rain = 0
KLD1 061356Z 19014KT 25/15 A3004 RMK A01 T02530149  RH  053%=      5-min Rain = 0
KLD1 061357Z 18015G20KT 25/15 A3004 RMK A01 T02530151  RH  053%=      5-min Rain = 0
KLD1 061358Z 19014KT 25/15 A3004 RMK A01 T02540150  RH  052%=      5-min Rain = 0
KLD1 061359Z 19013G18KT 26/15 A3004 RMK A01 T02550151  RH  053%=      5-min Rain = 0
KLD1 061400Z 19014KT 26/15 A3004 RMK A01 T02550151  RH  052%=      5-min Rain = 0
KLD1 061401Z 19014KT 26/15 A3004 RMK A01 T02550152  RH  053%=      5-min Rain = 0
KLD1 061402Z 19014KT 25/15 A3004 RMK A01 T02540152  RH  053%=      5-min Rain = 0
KLD1 061403Z 19012KT 26/15 A3004 RMK A01 T02550153  RH  053%=      5-min Rain = 0
KLD1 061404Z 19011KT 26/15 A3004 RMK A01 T02560154  RH  053%=      5-min Rain = 0
KLD1 061405Z 19009KT 26/16 A3004 RMK A01 T02560155  RH  054%=      5-min Rain = 0
KLD1 061406Z 19011KT 26/16 A3004 RMK A01 T02570156  RH  054%=      5-min Rain = 0
KLD1 061407Z 19011G16KT 26/16 A3004 RMK A01 T02580156  RH  053%=      5-min Rain = 0
KLD1 061408Z 18012KT 26/15 A3004 RMK A01 T02590154  RH  052%=      5-min Rain = 0
KLD1 061409Z 18013KT 26/16 A3004 RMK A01 T02590155  RH  052%=      5-min Rain = 0
KLD1 061410Z 19012KT 26/15 A3004 RMK A01 T02600153  RH  052%=      5-min Rain = 0
KLD1 061411Z 19015KT 26/16 A3004 RMK A01 T02590155  RH  052%=      5-min Rain = 0
KLD1 061412Z 19014KT 26/15 A3004 RMK A01 T02590153  RH  052%=      5-min Rain = 0
KLD1 061413Z 20014G19KT 26/15 A3004 RMK A01 T02590153  RH  052%=      5-min Rain = 0
KLD1 061414Z 19013KT 26/15 A3004 RMK A01 T02590154  RH  052%=      5-min Rain = 0
KLD1 061415Z 19016G22KT 26/15 A3004 RMK A01 T02580153  RH  052%=      5-min Rain = 0
KLD1 061416Z 19017KT 26/15 A3004 RMK A01 T02570151  RH  052%=      5-min Rain = 0
KLD1 061417Z 19015KT 26/15 A3004 RMK A01 T02560152  RH  052%=      5-min Rain = 0
KLD1 061418Z 19013G18KT 26/15 A3004 RMK A01 T02560152  RH  053%=      5-min Rain = 0
KLD1 061419Z 19013KT 26/15 A3004 RMK A01 T02550154  RH  054%=      5-min Rain = 0
KLD1 061420Z 19015KT 26/15 A3004 RMK A01 T02550153  RH  053%=      5-min Rain = 0
KLD1 061421Z 19013G19KT 26/15 A3004 RMK A01 T02550154  RH  054%=      5-min Rain = 0
KLD1 061422Z 19013KT 26/15 A3004 RMK A01 T02550153  RH  053%=      5-min Rain = 0
KLD1 061423Z 19015KT 26/15 A3004 RMK A01 T02550154  RH  054%=      5-min Rain = 0
KLD1 061424Z 19013KT 26/15 A3004 RMK A01 T02560154  RH  053%=      5-min Rain = 0
KLD1 061425Z 19013KT 26/16 A3004 RMK A01 T02560155  RH  054%=      5-min Rain = 0
KLD1 061426Z 19015G20KT 26/16 A3004 RMK A01 T02570155  RH  053%=      5-min Rain = 0
KLD1 061427Z 19015KT 26/16 A3004 RMK A01 T02580155  RH  053%=      5-min Rain = 0
KLD1 061428Z 19013G19KT 26/16 A3004 RMK A01 T02590156  RH  053%=      5-min Rain = 0
KLD1 061429Z 19014KT 26/16 A3004 RMK A01 T02600158  RH  053%=      5-min Rain = 0
KLD1 061430Z 19014G22KT 26/16 A3004 RMK A01 T02600158  RH  053%=      5-min Rain = 0
KLD1 061431Z 19018G23KT 26/16 A3004 RMK A01 T02610155  RH  052%=      5-min Rain = 0
KLD1 061432Z 19018G24KT 26/15 A3004 RMK A01 T02610154  RH  052%=      5-min Rain = 0
KLD1 061433Z 19019KT 26/15 A3004 RMK A01 T02620153  RH  051%=      5-min Rain = 0
KLD1 061434Z 19015KT 26/15 A3004 RMK A01 T02620154  RH  051%=      5-min Rain = 0
KLD1 061435Z 19015KT 26/16 A3004 RMK A01 T02630156  RH  052%=      5-min Rain = 0
KLD1 061436Z 19012KT 26/16 A3004 RMK A01 T02630157  RH  052%=      5-min Rain = 0
KLD1 061437Z 18013G20KT 26/16 A3004 RMK A01 T02640159  RH  053%=      5-min Rain = 0
KLD1 061438Z 19017G22KT 26/16 A3004 RMK A01 T02640155  RH  051%=      5-min Rain = 0
KLD1 061439Z 18019KT 26/16 A3004 RMK A01 T02640155  RH  051%=      5-min Rain = 0
KLD1 061440Z 18014G19KT 26/16 A3004 RMK A01 T02640156  RH  052%=      5-min Rain = 0
KLD1 061441Z 19015KT 26/16 A3004 RMK A01 T02640155  RH  051%=      5-min Rain = 0
KLD1 061442Z 19016G21KT 27/15 A3004 RMK A01 T02650154  RH  051%=      5-min Rain = 0
KLD1 061443Z 18016G21KT 27/16 A3004 RMK A01 T02650156  RH  051%=      5-min Rain = 0
KLD1 061444Z 18015KT 27/16 A3004 RMK A01 T02660157  RH  051%=      5-min Rain = 0
KLD1 061445Z 19017G23KT 27/16 A3004 RMK A01 T02660156  RH  051%=      5-min Rain = 0
KLD1 061446Z 19018G23KT 27/15 A3004 RMK A01 T02670154  RH  050%=      5-min Rain = 0
KLD1 061447Z 19015G21KT 27/15 A3004 RMK A01 T02670154  RH  050%=      5-min Rain = 0
KLD1 061448Z 19015KT 27/16 A3004 RMK A01 T02670156  RH  050%=      5-min Rain = 0
KLD1 061449Z 19014KT 27/16 A3004 RMK A01 T02670156  RH  051%=      5-min Rain = 0
KLD1 061450Z 19016KT 27/16 A3004 RMK A01 T02680156  RH  050%=      5-min Rain = 0
KLD1 061451Z 19015KT 27/16 A3004 RMK A01 T02690155  RH  050%=      5-min Rain = 0
KLD1 061452Z 19013G18KT 27/16 A3004 RMK A01 T02690157  RH  050%=      5-min Rain = 0
KLD1 061453Z 18016KT 27/16 A3004 RMK A01 T02710157  RH  050%=      5-min Rain = 0
KLD1 061454Z 18014KT 27/16 A3004 RMK A01 T02710158  RH  050%=      5-min Rain = 0
KLD1 061455Z 18015KT 27/16 A3004 RMK A01 T02720161  RH  051%=      5-min Rain = 0
KLD1 061456Z 18017KT 27/16 A3004 RMK A01 T02720157  RH  049%=      5-min Rain = 0
KLD1 061457Z 19017G22KT 27/16 A3004 RMK A01 T02730156  RH  049%=      5-min Rain = 0
KLD1 061458Z 19016KT 27/16 A3004 RMK A01 T02740156  RH  049%=      5-min Rain = 0
KLD1 061459Z 19016G21KT 27/16 A3004 RMK A01 T02740156  RH  049%=      5-min Rain = 0
KLD1 061500Z 19017G22KT 28/16 A3004 RMK A01 T02760155  RH  048%=      5-min Rain = 0
KLD1 061501Z 19016G21KT 28/16 A3004 RMK A01 T02760155  RH  047%=      5-min Rain = 0
KLD1 061502Z 19015KT 28/16 A3004 RMK A01 T02770155  RH  047%=      5-min Rain = 0
KLD1 061503Z 19013G20KT 28/16 A3004 RMK A01 T02770157  RH  048%=      5-min Rain = 0
KLD1 061504Z 20015KT 28/16 A3004 RMK A01 T02770159  RH  049%=      5-min Rain = 0
KLD1 061505Z 19016G21KT 28/16 A3004 RMK A01 T02750157  RH  048%=      5-min Rain = 0
KLD1 061506Z 18017KT 27/15 A3004 RMK A01 T02730154  RH  048%=      5-min Rain = 0
KLD1 061507Z 18018KT 27/15 A3004 RMK A01 T02710153  RH  048%=      5-min Rain = 0
KLD1 061508Z 19013G19KT 27/15 A3004 RMK A01 T02710154  RH  049%=      5-min Rain = 0
KLD1 061509Z 19017G23KT 27/16 A3004 RMK A01 T02720155  RH  049%=      5-min Rain = 0
KLD1 061510Z 18012KT 28/16 A3004 RMK A01 T02750158  RH  049%=      5-min Rain = 0
KLD1 061511Z 18013KT 28/16 A3004 RMK A01 T02780160  RH  049%=      5-min Rain = 0
KLD1 061512Z 19013G21KT 28/16 A3004 RMK A01 T02790160  RH  048%=      5-min Rain = 0
KLD1 061513Z 18015G20KT 28/16 A3004 RMK A01 T02810157  RH  047%=      5-min Rain = 0
KLD1 061514Z 18016KT 28/15 A3004 RMK A01 T02790153  RH  046%=      5-min Rain = 0
KLD1 061515Z 18015KT 28/15 A3004 RMK A01 T02760152  RH  047%=      5-min Rain = 0
KLD1 061516Z 18012G17KT 27/16 A3004 RMK A01 T02740155  RH  048%=      5-min Rain = 0
KLD1 061517Z 19011KT 27/16 A3004 RMK A01 T02730157  RH  049%=      5-min Rain = 0
KLD1 061518Z 19011G16KT 27/16 A3004 RMK A01 T02730156  RH  049%=      5-min Rain = 0
KLD1 061519Z 19010G15KT 28/16 A3004 RMK A01 T02750158  RH  049%=      5-min Rain = 0
KLD1 061520Z 19009G14KT 28/16 A3005 RMK A01 T02760160  RH  049%=      5-min Rain = 0
KLD1 061521Z 19011KT 28/16 A3005 RMK A01 T02780159  RH  049%=      5-min Rain = 0
KLD1 061522Z 19011KT 28/16 A3005 RMK A01 T02790156  RH  047%=      5-min Rain = 0
KLD1 061523Z 18014KT 28/16 A3005 RMK A01 T02780157  RH  048%=      5-min Rain = 0
KLD1 061524Z 19009G14KT 28/16 A3005 RMK A01 T02770156  RH  048%=      5-min Rain = 0
KLD1 061525Z 18013KT 28/16 A3005 RMK A01 T02770157  RH  048%=      5-min Rain = 0
KLD1 061526Z 18016KT 28/15 A3005 RMK A01 T02780154  RH  047%=      5-min Rain = 0
KLD1 061527Z 18011KT 28/16 A3005 RMK A01 T02790155  RH  047%=      5-min Rain = 0
KLD1 061528Z 18009KT 28/16 A3005 RMK A01 T02810158  RH  047%=      5-min Rain = 0
KLD1 061529Z 18012G17KT 28/16 A3005 RMK A01 T02820158  RH  047%=      5-min Rain = 0
KLD1 061530Z 18013G18KT 28/16 A3005 RMK A01 T02820155  RH  046%=      5-min Rain = 0
KLD1 061531Z 18014KT 28/16 A3005 RMK A01 T02790155  RH  047%=      5-min Rain = 0
KLD1 061532Z 18013KT 28/15 A3005 RMK A01 T02770152  RH  046%=      5-min Rain = 0
KLD1 061533Z 18011KT 28/15 A3005 RMK A01 T02760149  RH  046%=      5-min Rain = 0
KLD1 061534Z 19011KT 28/15 A3005 RMK A01 T02760153  RH  047%=      5-min Rain = 0
KLD1 061535Z 18008KT 28/15 A3005 RMK A01 T02780154  RH  047%=      5-min Rain = 0
KLD1 061536Z 18010KT 28/16 A3005 RMK A01 T02810158  RH  047%=      5-min Rain = 0
KLD1 061537Z 18011KT 28/15 A3005 RMK A01 T02830154  RH  045%=      5-min Rain = 0
KLD1 061538Z 18013G18KT 28/16 A3005 RMK A01 T02840158  RH  046%=      5-min Rain = 0
KLD1 061539Z 19014KT 29/16 A3005 RMK A01 T02860155  RH  045%=      5-min Rain = 0
KLD1 061540Z 19013KT 29/16 A3005 RMK A01 T02860156  RH  045%=      5-min Rain = 0
KLD1 061541Z 19012KT 29/16 A3005 RMK A01 T02860155  RH  045%=      5-min Rain = 0
KLD1 061542Z 18014KT 29/16 A3005 RMK A01 T02850156  RH  046%=      5-min Rain = 0
KLD1 061543Z 17013KT 29/15 A3005 RMK A01 T02860153  RH  044%=      5-min Rain = 0
KLD1 061544Z 18013KT 29/15 A3005 RMK A01 T02860151  RH  044%=      5-min Rain = 0
KLD1 061545Z 19012KT 29/15 A3005 RMK A01 T02860151  RH  044%=      5-min Rain = 0
KLD1 061546Z 17013KT 29/15 A3005 RMK A01 T02860154  RH  045%=      5-min Rain = 0
KLD1 061547Z 17015KT 29/15 A3005 RMK A01 T02860153  RH  044%=      5-min Rain = 0
KLD1 061548Z 18014KT 29/16 A3005 RMK A01 T02860155  RH  045%=      5-min Rain = 0
KLD1 061549Z 19013G19KT 29/16 A3005 RMK A01 T02870160  RH  046%=      5-min Rain = 0
KLD1 061550Z 18014KT 29/16 A3005 RMK A01 T02880155  RH  044%=      5-min Rain = 0
KLD1 061551Z 19013KT 29/15 A3005 RMK A01 T02870152  RH  044%=      5-min Rain = 0
KLD1 061552Z 19013KT 28/15 A3005 RMK A01 T02840152  RH  045%=      5-min Rain = 0
KLD1 061553Z 18015KT 28/15 A3005 RMK A01 T02830153  RH  045%=      5-min Rain = 0
KLD1 061554Z 18016KT 28/15 A3005 RMK A01 T02820153  RH  045%=      5-min Rain = 0
KLD1 061555Z 18015KT 28/15 A3005 RMK A01 T02800152  RH  046%=      5-min Rain = 0
KLD1 061556Z 18013G18KT 28/15 A3005 RMK A01 T02790153  RH  046%=      5-min Rain = 0
KLD1 061557Z 18012KT 28/16 A3005 RMK A01 T02790155  RH  047%=      5-min Rain = 0
KLD1 061558Z 18013G18KT 28/16 A3005 RMK A01 T02780156  RH  047%=      5-min Rain = 0
KLD1 061559Z 18013KT 28/16 A3005 RMK A01 T02780156  RH  047%=      5-min Rain = 0
KLD1 061600Z 18013KT 28/16 A3005 RMK A01 T02780155  RH  047%=      5-min Rain = 0
KLD1 061601Z 17012KT 28/16 A3005 RMK A01 T02790157  RH  047%=      5-min Rain = 0
KLD1 061602Z 17012G17KT 28/16 A3005 RMK A01 T02800159  RH  048%=      5-min Rain = 0
KLD1 061603Z 18015KT 28/16 A3005 RMK A01 T02810156  RH  047%=      5-min Rain = 0
KLD1 061604Z 17012G19KT 28/16 A3005 RMK A01 T02820157  RH  047%=      5-min Rain = 0
KLD1 061605Z 18010KT 28/16 A3005 RMK A01 T02840163  RH  048%=      5-min Rain = 0
KLD1 061606Z 19010KT 29/16 A3005 RMK A01 T02870162  RH  047%=      5-min Rain = 0
KLD1 061607Z 18009KT 29/17 A3005 RMK A01 T02890165  RH  047%=      5-min Rain = 0
KLD1 061608Z 18014KT 29/16 A3005 RMK A01 T02920161  RH  045%=      5-min Rain = 0
KLD1 061609Z 19014KT 29/15 A3005 RMK A01 T02930154  RH  043%=      5-min Rain = 0
KLD1 061610Z 19014G19KT 29/15 A3005 RMK A01 T02920153  RH  043%=      5-min Rain = 0
KLD1 061611Z 19014G19KT 29/16 A3005 RMK A01 T02920156  RH  044%=      5-min Rain = 0
KLD1 061612Z 19014KT 29/16 A3005 RMK A01 T02930157  RH  044%=      5-min Rain = 0
KLD1 061613Z 19013KT 29/16 A3005 RMK A01 T02930155  RH  043%=      5-min Rain = 0
KLD1 061614Z 18011KT 29/16 A3005 RMK A01 T02930159  RH  044%=      5-min Rain = 0
KLD1 061615Z 18011KT 30/16 A3005 RMK A01 T02960160  RH  044%=      5-min Rain = 0
KLD1 061616Z 17014KT 30/16 A3005 RMK A01 T02980159  RH  043%=      5-min Rain = 0
KLD1 061617Z 17012KT 30/16 A3005 RMK A01 T02990156  RH  042%=      5-min Rain = 0
KLD1 061618Z 17010KT 30/16 A3005 RMK A01 T02970159  RH  043%=      5-min Rain = 0
KLD1 061619Z 18016KT 30/16 A3005 RMK A01 T02960158  RH  043%=      5-min Rain = 0
KLD1 061620Z 18015KT 29/15 A3005 RMK A01 T02940152  RH  042%=      5-min Rain = 0
KLD1 061621Z 18015KT 29/15 A3005 RMK A01 T02920149  RH  042%=      5-min Rain = 0
KLD1 061622Z 18015KT 29/15 A3005 RMK A01 T02900152  RH  043%=      5-min Rain = 0
KLD1 061623Z 18015KT 29/15 A3005 RMK A01 T02890149  RH  043%=      5-min Rain = 0
KLD1 061624Z 18012KT 29/15 A3005 RMK A01 T02880148  RH  042%=      5-min Rain = 0
KLD1 061625Z 20014KT 29/15 A3005 RMK A01 T02880154  RH  044%=      5-min Rain = 0
KLD1 061626Z 19015KT 29/16 A3005 RMK A01 T02910156  RH  044%=      5-min Rain = 0
KLD1 061627Z 18012KT 29/16 A3005 RMK A01 T02930155  RH  043%=      5-min Rain = 0
KLD1 061628Z 19014KT 30/16 A3005 RMK A01 T02950156  RH  043%=      5-min Rain = 0
KLD1 061629Z 19014KT 30/15 A3005 RMK A01 T02960154  RH  042%=      5-min Rain = 0
KLD1 061630Z 18013KT 30/16 A3005 RMK A01 T02960156  RH  042%=      5-min Rain = 0
KLD1 061631Z 18011KT 30/16 A3005 RMK A01 T02970156  RH  042%=      5-min Rain = 0
KLD1 061632Z 19012KT 30/16 A3005 RMK A01 T03010157  RH  042%=      5-min Rain = 0
KLD1 061633Z 18011KT 30/16 A3005 RMK A01 T03040159  RH  041%=      5-min Rain = 0
KLD1 061634Z 17011KT 30/16 A3005 RMK A01 T03040158  RH  041%=      5-min Rain = 0
KLD1 061635Z 18012G18KT 30/16 A3005 RMK A01 T03020157  RH  042%=      5-min Rain = 0
KLD1 061636Z 17016KT 30/16 A3005 RMK A01 T03000157  RH  042%=      5-min Rain = 0
KLD1 061637Z 17012G17KT 30/15 A3005 RMK A01 T03000154  RH  041%=      5-min Rain = 0
KLD1 061638Z 17014G19KT 30/16 A3005 RMK A01 T03000156  RH  042%=      5-min Rain = 0
KLD1 061639Z 18017G22KT 30/15 A3005 RMK A01 T03000154  RH  041%=      5-min Rain = 0
KLD1 061640Z 18011KT 30/16 A3005 RMK A01 T03010161  RH  043%=      5-min Rain = 0
KLD1 061641Z 19011KT 30/16 A3005 RMK A01 T03020158  RH  042%=      5-min Rain = 0
KLD1 061642Z 17014KT 30/15 A3005 RMK A01 T03030154  RH  041%=      5-min Rain = 0
KLD1 061643Z 17013KT 30/16 A3005 RMK A01 T03000155  RH  041%=      5-min Rain = 0
KLD1 061644Z 19012KT 30/16 A3005 RMK A01 T02980156  RH  042%=      5-min Rain = 0
KLD1 061645Z 20014KT 30/15 A3005 RMK A01 T02990149  RH  040%=      5-min Rain = 0
KLD1 061646Z 19012G18KT 30/15 A3005 RMK A01 T03010153  RH  041%=      5-min Rain = 0
KLD1 061647Z 19014KT 30/15 A3005 RMK A01 T03020152  RH  040%=      5-min Rain = 0
KLD1 061648Z 18010KT 30/16 A3005 RMK A01 T03010155  RH  041%=      5-min Rain = 0
KLD1 061649Z 18008KT 30/16 A3005 RMK A01 T03000160  RH  043%=      5-min Rain = 0
KLD1 061650Z 18015KT 30/16 A3005 RMK A01 T03010156  RH  041%=      5-min Rain = 0
KLD1 061651Z 18014KT 30/16 A3005 RMK A01 T03020155  RH  041%=      5-min Rain = 0
KLD1 061652Z 18013KT 30/15 A3005 RMK A01 T03020154  RH  041%=      5-min Rain = 0
KLD1 061653Z 18014KT 30/15 A3005 RMK A01 T03030150  RH  040%=      5-min Rain = 0
KLD1 061654Z 18015KT 30/15 A3005 RMK A01 T03040154  RH  040%=      5-min Rain = 0
KLD1 061655Z 17012KT 31/15 A3005 RMK A01 T03050154  RH  040%=      5-min Rain = 0
KLD1 061656Z 18012KT 31/16 A3005 RMK A01 T03060156  RH  040%=      5-min Rain = 0
KLD1 061657Z 17012KT 31/16 A3005 RMK A01 T03070155  RH  040%=      5-min Rain = 0
KLD1 061658Z 17014KT 31/16 A3005 RMK A01 T03070159  RH  041%=      5-min Rain = 0
KLD1 061659Z 17013KT 31/16 A3005 RMK A01 T03070155  RH  040%=      5-min Rain = 0
KLD1 061700Z 18011KT 31/16 A3005 RMK A01 T03080157  RH  040%=      5-min Rain = 0
KLD1 061701Z 17014KT 31/16 A3005 RMK A01 T03100159  RH  040%=      5-min Rain = 0
KLD1 061702Z 18013KT 31/16 A3005 RMK A01 T03110157  RH  039%=      5-min Rain = 0
KLD1 061703Z 19013KT 31/15 A3004 RMK A01 T03130153  RH  038%=      5-min Rain = 0
KLD1 061704Z 19016G21KT 31/15 A3004 RMK A01 T03130153  RH  038%=      5-min Rain = 0
KLD1 061705Z 18012G17KT 31/16 A3005 RMK A01 T03140156  RH  039%=      5-min Rain = 0
KLD1 061706Z 19013KT 31/16 A3005 RMK A01 T03130158  RH  039%=      5-min Rain = 0
KLD1 061707Z 19011G16KT 31/16 A3005 RMK A01 T03120158  RH  039%=      5-min Rain = 0
KLD1 061708Z 18012KT 31/16 A3005 RMK A01 T03130155  RH  038%=      5-min Rain = 0
KLD1 061709Z 18011KT 31/16 A3004 RMK A01 T03140155  RH  038%=      5-min Rain = 0
KLD1 061710Z 18012G17KT 32/16 A3004 RMK A01 T03160155  RH  038%=      5-min Rain = 0
KLD1 061711Z 19011KT 32/16 A3004 RMK A01 T03190162  RH  039%=      5-min Rain = 0
KLD1 061712Z 18014G21KT 32/16 A3004 RMK A01 T03200155  RH  037%=      5-min Rain = 0
KLD1 061713Z 18017KT 32/15 A3004 RMK A01 T03180150  RH  036%=      5-min Rain = 0
KLD1 061714Z 19015KT 32/15 A3004 RMK A01 T03170148  RH  036%=      5-min Rain = 0
KLD1 061715Z 19014KT 32/15 A3004 RMK A01 T03170148  RH  036%=      5-min Rain = 0
KLD1 061716Z 18011KT 32/15 A3004 RMK A01 T03200146  RH  035%=      5-min Rain = 0
KLD1 061717Z 18012KT 32/15 A3004 RMK A01 T03210148  RH  035%=      5-min Rain = 0
KLD1 061718Z 19011KT 32/15 A3004 RMK A01 T03220154  RH  036%=      5-min Rain = 0
KLD1 061719Z 20012KT 32/15 A3004 RMK A01 T03230151  RH  036%=      5-min Rain = 0
KLD1 061720Z 18014G20KT 32/15 A3004 RMK A01 T03220148  RH  035%=      5-min Rain = 0
KLD1 061721Z 18013G18KT 32/15 A3004 RMK A01 T03210146  RH  035%=      5-min Rain = 0
KLD1 061722Z 17012KT 32/15 A3004 RMK A01 T03200151  RH  036%=      5-min Rain = 0
KLD1 061723Z 18015KT 32/15 A3004 RMK A01 T03200145  RH  035%=      5-min Rain = 0
KLD1 061724Z 18013KT 32/15 A3004 RMK A01 T03190147  RH  035%=      5-min Rain = 0
KLD1 061725Z 18013KT 32/15 A3004 RMK A01 T03180148  RH  036%=      5-min Rain = 0
KLD1 061726Z 18011KT 32/15 A3004 RMK A01 T03180150  RH  036%=      5-min Rain = 0
KLD1 061727Z 18017KT 32/15 A3004 RMK A01 T03190149  RH  036%=      5-min Rain = 0
KLD1 061728Z 17013KT 32/15 A3004 RMK A01 T03200145  RH  035%=      5-min Rain = 0
KLD1 061729Z 17013KT 32/15 A3004 RMK A01 T03210152  RH  036%=      5-min Rain = 0
KLD1 061730Z 17014KT 32/15 A3004 RMK A01 T03230149  RH  035%=      5-min Rain = 0
KLD1 061731Z 17017KT 32/15 A3004 RMK A01 T03230145  RH  034%=      5-min Rain = 0
KLD1 061732Z 17015G20KT 32/14 A3003 RMK A01 T03220144  RH  034%=      5-min Rain = 0
KLD1 061733Z 17016KT 32/15 A3003 RMK A01 T03220147  RH  035%=      5-min Rain = 0
KLD1 061734Z 17014KT 32/15 A3003 RMK A01 T03210147  RH  035%=      5-min Rain = 0
KLD1 061735Z 17013G18KT 32/15 A3003 RMK A01 T03220148  RH  035%=      5-min Rain = 0
KLD1 061736Z 18012KT 32/15 A3003 RMK A01 T03240147  RH  034%=      5-min Rain = 0
KLD1 061737Z 17012G18KT 33/15 A3003 RMK A01 T03250148  RH  034%=      5-min Rain = 0
KLD1 061738Z 17014G19KT 33/15 A3003 RMK A01 T03260147  RH  034%=      5-min Rain = 0
KLD1 061739Z 17016KT 33/14 A3003 RMK A01 T03260141  RH  033%=      5-min Rain = 0
KLD1 061740Z 18016KT 33/14 A3003 RMK A01 T03260141  RH  033%=      5-min Rain = 0
KLD1 061741Z 18013G18KT 33/15 A3003 RMK A01 T03260145  RH  034%=      5-min Rain = 0
KLD1 061742Z 18016KT 33/15 A3003 RMK A01 T03260147  RH  034%=      5-min Rain = 0
KLD1 061743Z 16015KT 33/14 A3003 RMK A01 T03270143  RH  033%=      5-min Rain = 0
KLD1 061744Z 17014KT 33/14 A3003 RMK A01 T03270144  RH  033%=      5-min Rain = 0
KLD1 061745Z 18013KT 33/15 A3003 RMK A01 T03280147  RH  034%=      5-min Rain = 0
KLD1 061746Z 18013KT 33/15 A3003 RMK A01 T03280147  RH  034%=      5-min Rain = 0
KLD1 061747Z 18013KT 33/15 A3003 RMK A01 T03290145  RH  033%=      5-min Rain = 0
KLD1 061748Z 18015KT 33/15 A3003 RMK A01 T03300147  RH  033%=      5-min Rain = 0
KLD1 061749Z 17011G16KT 33/15 A3003 RMK A01 T03300146  RH  033%=      5-min Rain = 0
KLD1 061750Z 18015KT 33/15 A3003 RMK A01 T03310147  RH  033%=      5-min Rain = 0
KLD1 061751Z 17014KT 33/14 A3003 RMK A01 T03310137  RH  031%=      5-min Rain = 0
KLD1 061752Z 17017KT 33/14 A3003 RMK A01 T03310139  RH  031%=      5-min Rain = 0
KLD1 061753Z 18014KT 33/14 A3003 RMK A01 T03310138  RH  031%=      5-min Rain = 0
KLD1 061754Z 17012KT 33/14 A3003 RMK A01 T03320136  RH  031%=      5-min Rain = 0
KLD1 061755Z 18014KT 33/14 A3003 RMK A01 T03340141  RH  031%=      5-min Rain = 0
KLD1 061756Z 18015KT 33/14 A3003 RMK A01 T03340141  RH  031%=      5-min Rain = 0
KLD1 061757Z 18013KT 33/14 A3003 RMK A01 T03340142  RH  031%=      5-min Rain = 0
KLD1 061758Z 17015KT 34/14 A3003 RMK A01 T03350144  RH  032%=      5-min Rain = 0
KLD1 061759Z 18012KT 34/14 A3003 RMK A01 T03350141  RH  031%=      5-min Rain = 0
KLD1 061800Z 19014KT 34/15 A3003 RMK A01 T03350146  RH  032%=      5-min Rain = 0
KLD1 061801Z 18011KT 34/14 A3003 RMK A01 T03350141  RH  031%=      5-min Rain = 0
KLD1 061802Z 18014KT 34/14 A3003 RMK A01 T03350142  RH  031%=      5-min Rain = 0
KLD1 061803Z 18014KT 34/13 A3003 RMK A01 T03350134  RH  030%=      5-min Rain = 0
KLD1 061804Z 17013KT 34/14 A3003 RMK A01 T03350136  RH  030%=      5-min Rain = 0
KLD1 061805Z 18015KT 34/14 A3003 RMK A01 T03360138  RH  030%=      5-min Rain = 0
KLD1 061806Z 18012G18KT 34/14 A3003 RMK A01 T03370142  RH  031%=      5-min Rain = 0
KLD1 061807Z 19014KT 34/14 A3003 RMK A01 T03380142  RH  031%=      5-min Rain = 0
KLD1 061808Z 20011KT 34/14 A3003 RMK A01 T03380140  RH  030%=      5-min Rain = 0
KLD1 061809Z 20014G21KT 34/15 A3003 RMK A01 T03390146  RH  031%=      5-min Rain = 0
KLD1 061810Z 20016G21KT 34/14 A3003 RMK A01 T03410137  RH  029%=      5-min Rain = 0
KLD1 061811Z 19014G19KT 34/14 A3003 RMK A01 T03400140  RH  030%=      5-min Rain = 0
KLD1 061812Z 19012KT 34/14 A3003 RMK A01 T03380144  RH  031%=      5-min Rain = 0
KLD1 061813Z 20013KT 34/15 A3003 RMK A01 T03380147  RH  032%=      5-min Rain = 0
KLD1 061814Z 19014KT 34/14 A3003 RMK A01 T03390142  RH  031%=      5-min Rain = 0
KLD1 061815Z 18011KT 34/14 A3003 RMK A01 T03390140  RH  030%=      5-min Rain = 0
KLD1 061816Z 18014G20KT 34/14 A3003 RMK A01 T03380141  RH  031%=      5-min Rain = 0
KLD1 061817Z 17015G20KT 34/14 A3003 RMK A01 T03390135  RH  029%=      5-min Rain = 0
KLD1 061818Z 17014G19KT 34/14 A3003 RMK A01 T03380135  RH  029%=      5-min Rain = 0
KLD1 061819Z 17013KT 34/13 A3003 RMK A01 T03390133  RH  029%=      5-min Rain = 0
KLD1 061820Z 18011KT 34/14 A3003 RMK A01 T03390139  RH  030%=      5-min Rain = 0
KLD1 061821Z 19012G17KT 34/14 A3003 RMK A01 T03400142  RH  030%=      5-min Rain = 0
KLD1 061822Z 19014KT 34/14 A3003 RMK A01 T03420141  RH  030%=      5-min Rain = 0
KLD1 061823Z 20014KT 34/14 A3003 RMK A01 T03410138  RH  030%=      5-min Rain = 0
KLD1 061824Z 20013KT 34/13 A3003 RMK A01 T03400133  RH  029%=      5-min Rain = 0
KLD1 061825Z 19012KT 34/13 A3003 RMK A01 T03420134  RH  028%=      5-min Rain = 0
KLD1 061826Z 18015KT 35/14 A3003 RMK A01 T03450138  RH  029%=      5-min Rain = 0
KLD1 061827Z 18014KT 35/14 A3003 RMK A01 T03450138  RH  029%=      5-min Rain = 0
KLD1 061828Z 18011KT 34/13 A3003 RMK A01 T03410132  RH  028%=      5-min Rain = 0
KLD1 061829Z 17011KT 34/14 A3003 RMK A01 T03400139  RH  030%=      5-min Rain = 0
KLD1 061830Z 17014KT 34/14 A3003 RMK A01 T03420136  RH  029%=      5-min Rain = 0
KLD1 061831Z 18014KT 34/13 A3003 RMK A01 T03430130  RH  028%=      5-min Rain = 0
KLD1 061832Z 18016G21KT 34/13 A3003 RMK A01 T03440134  RH  028%=      5-min Rain = 0
KLD1 061833Z 18013KT 34/14 A3003 RMK A01 T03440136  RH  029%=      5-min Rain = 0
KLD1 061834Z 18012G17KT 35/14 A3003 RMK A01 T03460138  RH  029%=      5-min Rain = 0
KLD1 061835Z 19013KT 35/14 A3003 RMK A01 T03470138  RH  028%=      5-min Rain = 0
KLD1 061836Z 17014KT 35/13 A3003 RMK A01 T03480133  RH  027%=      5-min Rain = 0
KLD1 061837Z 18015KT 35/13 A3003 RMK A01 T03480129  RH  027%=      5-min Rain = 0
KLD1 061838Z 17012KT 35/12 A3002 RMK A01 T03470124  RH  026%=      5-min Rain = 0
KLD1 061839Z 19010KT 35/13 A3002 RMK A01 T03460126  RH  026%=      5-min Rain = 0
KLD1 061840Z 19015G20KT 35/13 A3002 RMK A01 T03470132  RH  027%=      5-min Rain = 0
KLD1 061841Z 19015KT 35/12 A3002 RMK A01 T03480122  RH  026%=      5-min Rain = 0
KLD1 061842Z 18015KT 35/13 A3003 RMK A01 T03460125  RH  026%=      5-min Rain = 0
KLD1 061843Z 18012KT 35/12 A3002 RMK A01 T03450118  RH  025%=      5-min Rain = 0
KLD1 061844Z 19014G19KT 35/12 A3002 RMK A01 T03460124  RH  026%=      5-min Rain = 0
KLD1 061845Z 20011KT 35/12 A3002 RMK A01 T03470123  RH  026%=      5-min Rain = 0
KLD1 061846Z 20014KT 35/13 A3002 RMK A01 T03490127  RH  026%=      5-min Rain = 0
KLD1 061847Z 18010G15KT 35/13 A3002 RMK A01 T03500132  RH  027%=      5-min Rain = 0
KLD1 061848Z 17013KT 35/13 A3002 RMK A01 T03510131  RH  027%=      5-min Rain = 0
KLD1 061849Z 18016G23KT 35/13 A3002 RMK A01 T03520128  RH  026%=      5-min Rain = 0
KLD1 061850Z 17013KT 35/13 A3002 RMK A01 T03530125  RH  025%=      5-min Rain = 0
KLD1 061851Z 17014KT 35/11 A3002 RMK A01 T03530113  RH  023%=      5-min Rain = 0
KLD1 061852Z 18016KT 35/12 A3002 RMK A01 T03530119  RH  024%=      5-min Rain = 0
KLD1 061853Z 18016KT 35/12 A3002 RMK A01 T03520116  RH  024%=      5-min Rain = 0
KLD1 061854Z 19014KT 35/12 A3002 RMK A01 T03500119  RH  025%=      5-min Rain = 0
KLD1 061855Z 18013KT 35/13 A3002 RMK A01 T03510125  RH  026%=      5-min Rain = 0
KLD1 061856Z 17014KT 35/11 A3002 RMK A01 T03530112  RH  023%=      5-min Rain = 0
KLD1 061857Z 17015G20KT 35/12 A3002 RMK A01 T03520118  RH  024%=      5-min Rain = 0
KLD1 061858Z 18015KT 35/12 A3002 RMK A01 T03480119  RH  025%=      5-min Rain = 0
KLD1 061859Z 17010KT 35/11 A3002 RMK A01 T03470111  RH  024%=      5-min Rain = 0
KLD1 061900Z 18013G19KT 35/12 A3002 RMK A01 T03460123  RH  026%=      5-min Rain = 0
KLD1 061901Z 18016KT 35/10 A3002 RMK A01 T03450101  RH  022%=      5-min Rain = 0
KLD1 061902Z 18015KT 35/11 A3002 RMK A01 T03460106  RH  023%=      5-min Rain = 0
KLD1 061903Z 18016KT 35/11 A3002 RMK A01 T03460108  RH  024%=      5-min Rain = 0
KLD1 061904Z 19014KT 34/11 A3002 RMK A01 T03440108  RH  024%=      5-min Rain = 0
KLD1 061905Z 19009KT 34/11 A3002 RMK A01 T03420114  RH  025%=      5-min Rain = 0
KLD1 061906Z 19014G24KT 34/12 A3002 RMK A01 T03430122  RH  026%=      5-min Rain = 0
KLD1 061907Z 19014KT 34/12 A3002 RMK A01 T03420121  RH  026%=      5-min Rain = 0
KLD1 061908Z 19014KT 34/12 A3002 RMK A01 T03410117  RH  026%=      5-min Rain = 0
KLD1 061909Z 20013KT 34/12 A3002 RMK A01 T03400120  RH  026%=      5-min Rain = 0
KLD1 061910Z 20011KT 34/12 A3002 RMK A01 T03380116  RH  026%=      5-min Rain = 0
KLD1 061911Z 19009KT 34/12 A3002 RMK A01 T03380117  RH  026%=      5-min Rain = 0
KLD1 061912Z 19011KT 34/12 A3002 RMK A01 T03370122  RH  027%=      5-min Rain = 0
KLD1 061913Z 19011KT 34/12 A3002 RMK A01 T03350121  RH  027%=      5-min Rain = 0
KLD1 061914Z 19015G20KT 34/12 A3002 RMK A01 T03350116  RH  026%=      5-min Rain = 0
KLD1 061915Z 19012G17KT 34/12 A3002 RMK A01 T03360116  RH  026%=      5-min Rain = 0
KLD1 061916Z 20010G15KT 34/13 A3002 RMK A01 T03360125  RH  028%=      5-min Rain = 0
KLD1 061917Z 20011G18KT 34/12 A3002 RMK A01 T03360124  RH  028%=      5-min Rain = 0
KLD1 061918Z 20012KT 34/12 A3002 RMK A01 T03350121  RH  027%=      5-min Rain = 0
KLD1 061919Z 20013KT 33/12 A3002 RMK A01 T03330119  RH  027%=      5-min Rain = 0
KLD1 061920Z 20012KT 33/12 A3002 RMK A01 T03330115  RH  026%=      5-min Rain = 0
KLD1 061921Z 19009KT 33/12 A3002 RMK A01 T03330118  RH  027%=      5-min Rain = 0
KLD1 061922Z 18013KT 33/12 A3002 RMK A01 T03310118  RH  027%=      5-min Rain = 0
KLD1 061923Z 19015G20KT 33/11 A3002 RMK A01 T03310110  RH  026%=      5-min Rain = 0
KLD1 061924Z 20015G21KT 33/11 A3002 RMK A01 T03320111  RH  026%=      5-min Rain = 0
KLD1 061925Z 20013KT 33/12 A3002 RMK A01 T03320115  RH  027%=      5-min Rain = 0
KLD1 061926Z 21011KT 33/12 A3002 RMK A01 T03310119  RH  028%=      5-min Rain = 0
KLD1 061927Z 20011KT 33/12 A3002 RMK A01 T03300116  RH  027%=      5-min Rain = 0
KLD1 061928Z 20011KT 33/12 A3002 RMK A01 T03300119  RH  028%=      5-min Rain = 0
KLD1 061929Z 20010KT 33/12 A3002 RMK A01 T03290123  RH  029%=      5-min Rain = 0
KLD1 061930Z 20012KT 33/12 A3002 RMK A01 T03280122  RH  029%=      5-min Rain = 0
KLD1 061931Z 20013KT 33/12 A3002 RMK A01 T03280124  RH  029%=      5-min Rain = 0
KLD1 061932Z 20014KT 33/12 A3002 RMK A01 T03280121  RH  028%=      5-min Rain = 0
KLD1 061933Z 20013G18KT 33/12 A3002 RMK A01 T03280121  RH  028%=      5-min Rain = 0
KLD1 061934Z 20015KT 33/12 A3002 RMK A01 T03280117  RH  028%=      5-min Rain = 0
KLD1 061935Z 21015KT 33/12 A3002 RMK A01 T03290119  RH  028%=      5-min Rain = 0
KLD1 061936Z 22014KT 33/12 A3002 RMK A01 T03290119  RH  028%=      5-min Rain = 0
KLD1 061937Z 24015KT 33/13 A3002 RMK A01 T03280131  RH  030%=      5-min Rain = 0
KLD1 061938Z 23016G21KT 32/15 A3002 RMK A01 T03230146  RH  034%=      5-min Rain = 0
KLD1 061939Z 22013KT 31/16 A3002 RMK A01 T03140157  RH  039%=      5-min Rain = 0
KLD1 061940Z 22010KT 31/16 A3002 RMK A01 T03060156  RH  040%=      5-min Rain = 0
KLD1 061941Z 23011G16KT 30/16 A3002 RMK A01 T03010164  RH  044%=      5-min Rain = 0
KLD1 061942Z 23017G22KT 30/15 A3002 RMK A01 T02990145  RH  039%=      5-min Rain = 0
KLD1 061943Z 23019G24KT 30/13 A3002 RMK A01 T03010129  RH  035%=      5-min Rain = 0
KLD1 061944Z 24017KT 30/13 A3002 RMK A01 T03040130  RH  034%=      5-min Rain = 0
KLD1 061945Z 24017KT 31/13 A3002 RMK A01 T03050131  RH  034%=      5-min Rain = 0
KLD1 061946Z 23016G21KT 31/13 A3002 RMK A01 T03050129  RH  034%=      5-min Rain = 0
KLD1 061947Z 23017KT 31/13 A3002 RMK A01 T03060128  RH  034%=      5-min Rain = 0
KLD1 061948Z 22016KT 31/13 A3002 RMK A01 T03070128  RH  034%=      5-min Rain = 0
KLD1 061949Z 23013KT 31/12 A3002 RMK A01 T03070121  RH  032%=      5-min Rain = 0
KLD1 061950Z 21010G17KT 31/13 A3002 RMK A01 T03090125  RH  032%=      5-min Rain = 0
KLD1 061951Z 22012G17KT 31/12 A3002 RMK A01 T03100119  RH  031%=      5-min Rain = 0
KLD1 061952Z 21014KT 31/13 A3002 RMK A01 T03110125  RH  032%=      5-min Rain = 0
KLD1 061953Z 21016G22KT 31/13 A3002 RMK A01 T03100127  RH  033%=      5-min Rain = 0
KLD1 061954Z 21017G22KT 31/12 A3002 RMK A01 T03090123  RH  032%=      5-min Rain = 0
KLD1 061955Z 21020G27KT 31/12 A3002 RMK A01 T03090122  RH  032%=      5-min Rain = 0
KLD1 061956Z 20022G28KT 31/12 A3001 RMK A01 T03090117  RH  031%=      5-min Rain = 0
KLD1 061957Z 21020G26KT 31/12 A3002 RMK A01 T03100118  RH  031%=      5-min Rain = 0
KLD1 061958Z 21017G22KT 31/11 A3002 RMK A01 T03100114  RH  030%=      5-min Rain = 0
KLD1 061959Z 20018G25KT 31/12 A3002 RMK A01 T03100117  RH  031%=      5-min Rain = 0
KLD1 062000Z 19019KT 31/11 A3001 RMK A01 T03090111  RH  030%=      5-min Rain = 0
KLD1 062001Z 18019KT 31/11 A3001 RMK A01 T03090110  RH  029%=      5-min Rain = 0
KLD1 062002Z 17017KT 31/11 A3001 RMK A01 T03090112  RH  030%=      5-min Rain = 0
KLD1 062003Z 17017KT 31/11 A3001 RMK A01 T03090112  RH  030%=      5-min Rain = 0
KLD1 062004Z 17019KT 31/11 A3001 RMK A01 T03090109  RH  029%=      5-min Rain = 0
KLD1 062005Z 16018KT 31/11 A3001 RMK A01 T03110108  RH  029%=      5-min Rain = 0
KLD1 062006Z 17019KT 31/11 A3001 RMK A01 T03110106  RH  028%=      5-min Rain = 0
KLD1 062007Z 16019G27KT 31/11 A30 RMK A01 T03120107  RH  028%=      5-min Rain = 0
KLD1 062008Z 16019KT 31/12 A30 RMK A01 T03110115  RH  030%=      5-min Rain = 0
KLD1 062009Z 15019G25KT 31/11 A30 RMK A01 T03090113  RH  030%=      5-min Rain = 0
KLD1 062010Z 15019G25KT 31/11 A30 RMK A01 T03090107  RH  029%=      5-min Rain = 0
KLD1 062011Z 14019G24KT 31/10 A30 RMK A01 T03130095  RH  026%=      5-min Rain = 0
KLD1 062012Z 14017KT 32/09 A30 RMK A01 T03180089  RH  024%=      5-min Rain = 0
KLD1 062013Z 14014KT 32/09 A30 RMK A01 T03220090  RH  024%=      5-min Rain = 0
KLD1 062014Z 15015KT 32/09 A30 RMK A01 T03240093  RH  024%=      5-min Rain = 0
KLD1 062015Z 15014G19KT 32/10 A30 RMK A01 T03220098  RH  025%=      5-min Rain = 0
KLD1 062016Z 16014KT 32/11 A30 RMK A01 T03210105  RH  027%=      5-min Rain = 0
KLD1 062017Z 16015KT 32/11 A30 RMK A01 T03180106  RH  027%=      5-min Rain = 0
KLD1 062018Z 16016KT 32/11 A30 RMK A01 T03170105  RH  027%=      5-min Rain = 0
KLD1 062019Z 15014KT 32/10 A30 RMK A01 T03170102  RH  027%=      5-min Rain = 0
KLD1 062020Z 15012KT 32/11 A30 RMK A01 T03180110  RH  028%=      5-min Rain = 0
KLD1 062021Z 16011KT 32/12 A30 RMK A01 T03180116  RH  029%=      5-min Rain = 0
KLD1 062022Z 15010KT 32/12 A30 RMK A01 T03180118  RH  029%=      5-min Rain = 0
KLD1 062023Z 15010KT 32/12 A30 RMK A01 T03170120  RH  030%=      5-min Rain = 0
KLD1 062024Z 15008KT 32/12 A30 RMK A01 T03180122  RH  030%=      5-min Rain = 0
KLD1 062025Z 14010KT 32/13 A30 RMK A01 T03180126  RH  031%=      5-min Rain = 0
KLD1 062026Z 15009KT 32/12 A30 RMK A01 T03180118  RH  029%=      5-min Rain = 0
KLD1 062027Z 15008KT 32/12 A30 RMK A01 T03190124  RH  030%=      5-min Rain = 0
KLD1 062028Z 15010G15KT 32/13 A30 RMK A01 T03190129  RH  031%=      5-min Rain = 0
KLD1 062029Z 14013KT 32/13 A30 RMK A01 T03190126  RH  031%=      5-min Rain = 0
KLD1 062030Z 15013KT 32/13 A30 RMK A01 T03190125  RH  031%=      5-min Rain = 0
KLD1 062031Z 16011KT 32/13 A30 RMK A01 T03200126  RH  031%=      5-min Rain = 0
KLD1 062032Z 15010KT 32/13 A30 RMK A01 T03210129  RH  031%=      5-min Rain = 0
KLD1 062033Z 15008KT 32/14 A30 RMK A01 T03230135  RH  032%=      5-min Rain = 0
KLD1 062034Z 15010G15KT 33/14 A30 RMK A01 T03250139  RH  032%=      5-min Rain = 0
KLD1 062035Z 14011KT 33/13 A30 RMK A01 T03290134  RH  031%=      5-min Rain = 0
KLD1 062036Z 14011KT 33/13 A30 RMK A01 T03320130  RH  029%=      5-min Rain = 0
KLD1 062037Z 14010KT 34/13 A30 RMK A01 T03350133  RH  030%=      5-min Rain = 0
KLD1 062038Z 13010KT 34/14 A30 RMK A01 T03370137  RH  030%=      5-min Rain = 0
KLD1 062039Z 13011KT 34/13 A30 RMK A01 T03420132  RH  028%=      5-min Rain = 0
KLD1 062040Z 13012KT 35/13 A2999 RMK A01 T03470127  RH  027%=      5-min Rain = 0
KLD1 062041Z 14011KT 35/13 A2999 RMK A01 T03480131  RH  027%=      5-min Rain = 0
KLD1 062042Z 14013KT 35/13 A2999 RMK A01 T03480132  RH  027%=      5-min Rain = 0
KLD1 062043Z 14013KT 34/13 A2999 RMK A01 T03430133  RH  028%=      5-min Rain = 0
KLD1 062044Z 14012KT 34/13 A2999 RMK A01 T03420130  RH  028%=      5-min Rain = 0
KLD1 062045Z 14011KT 34/13 A2999 RMK A01 T03440127  RH  027%=      5-min Rain = 0
KLD1 062046Z 14012KT 35/13 A2999 RMK A01 T03460126  RH  027%=      5-min Rain = 0
KLD1 062047Z 14011KT 34/12 A2999 RMK A01 T03440122  RH  026%=      5-min Rain = 0
KLD1 062048Z 14009KT 34/12 A2999 RMK A01 T03440124  RH  026%=      5-min Rain = 0
KLD1 062049Z 13010G15KT 35/13 A2999 RMK A01 T03450129  RH  027%=      5-min Rain = 0
KLD1 062050Z 13014KT 35/12 A2999 RMK A01 T03480120  RH  025%=      5-min Rain = 0
KLD1 062051Z 13014KT 35/11 A2999 RMK A01 T03500114  RH  024%=      5-min Rain = 0
KLD1 062052Z 14013KT 35/12 A2999 RMK A01 T03500118  RH  025%=      5-min Rain = 0
KLD1 062053Z 14014KT 35/12 A2999 RMK A01 T03500115  RH  024%=      5-min Rain = 0
KLD1 062054Z 13013KT 35/12 A2999 RMK A01 T03500116  RH  024%=      5-min Rain = 0
KLD1 062055Z 13012KT 35/11 A2999 RMK A01 T03510114  RH  024%=      5-min Rain = 0
KLD1 062056Z 14012KT 35/12 A2999 RMK A01 T03510115  RH  024%=      5-min Rain = 0
KLD1 062057Z 14011KT 35/11 A2998 RMK A01 T03520112  RH  023%=      5-min Rain = 0
KLD1 062058Z 14012KT 35/11 A2998 RMK A01 T03510111  RH  023%=      5-min Rain = 0
KLD1 062059Z 12012KT 35/11 A2998 RMK A01 T03520112  RH  023%=      5-min Rain = 0
KLD1 062100Z 13015KT 35/11 A2998 RMK A01 T03540106  RH  022%=      5-min Rain = 0
KLD1 062101Z 13011KT 35/11 A2998 RMK A01 T03530110  RH  023%=      5-min Rain = 0
KLD1 062102Z 13013KT 35/11 A2998 RMK A01 T03540112  RH  023%=      5-min Rain = 0
KLD1 062103Z 14015KT 35/11 A2998 RMK A01 T03540109  RH  023%=      5-min Rain = 0
KLD1 062104Z 14015KT 35/11 A2998 RMK A01 T03510108  RH  023%=      5-min Rain = 0
KLD1 062105Z 15012KT 35/11 A2998 RMK A01 T03490110  RH  023%=      5-min Rain = 0
KLD1 062106Z 13010G16KT 35/11 A2998 RMK A01 T03490110  RH  023%=      5-min Rain = 0
KLD1 062107Z 13013KT 35/11 A2998 RMK A01 T03500109  RH  023%=      5-min Rain = 0
KLD1 062108Z 13013KT 35/10 A2998 RMK A01 T03500104  RH  022%=      5-min Rain = 0
KLD1 062109Z 14012KT 35/10 A2998 RMK A01 T03510104  RH  022%=      5-min Rain = 0
KLD1 062110Z 14012KT 35/11 A2998 RMK A01 T03500105  RH  023%=      5-min Rain = 0
KLD1 062111Z 14011KT 35/11 A2998 RMK A01 T03500109  RH  023%=      5-min Rain = 0
KLD1 062112Z 13012KT 35/11 A2998 RMK A01 T03490109  RH  023%=      5-min Rain = 0
KLD1 062113Z 13014KT 35/11 A2998 RMK A01 T03500105  RH  022%=      5-min Rain = 0
KLD1 062114Z 14013KT 35/11 A2998 RMK A01 T03510105  RH  022%=      5-min Rain = 0
KLD1 062115Z 14012KT 35/10 A2998 RMK A01 T03490104  RH  023%=      5-min Rain = 0
KLD1 062116Z 14011KT 35/11 A2998 RMK A01 T03470107  RH  023%=      5-min Rain = 0
KLD1 062117Z 14011KT 35/11 A2998 RMK A01 T03470106  RH  023%=      5-min Rain = 0
KLD1 062118Z 13012KT 35/11 A2998 RMK A01 T03470106  RH  023%=      5-min Rain = 0
KLD1 062119Z 13011G16KT 35/10 A2998 RMK A01 T03470101  RH  022%=      5-min Rain = 0
KLD1 062120Z 14011KT 35/10 A2998 RMK A01 T03480104  RH  023%=      5-min Rain = 0
KLD1 062121Z 14011KT 35/10 A2997 RMK A01 T03490103  RH  022%=      5-min Rain = 0
KLD1 062122Z 14009KT 35/11 A2997 RMK A01 T03490106  RH  023%=      5-min Rain = 0
KLD1 062123Z 13009KT 35/11 A2997 RMK A01 T03490106  RH  023%=      5-min Rain = 0
KLD1 062124Z 13010KT 35/10 A2997 RMK A01 T03510103  RH  022%=      5-min Rain = 0
KLD1 062125Z 14009KT 35/11 A2997 RMK A01 T03520111  RH  023%=      5-min Rain = 0
KLD1 062126Z 13011KT 35/10 A2997 RMK A01 T03530104  RH  022%=      5-min Rain = 0
KLD1 062127Z 13010KT 35/11 A2997 RMK A01 T03530105  RH  022%=      5-min Rain = 0
KLD1 062128Z 14011KT 35/10 A2997 RMK A01 T03530104  RH  022%=      5-min Rain = 0
KLD1 062129Z 14011KT 35/10 A2997 RMK A01 T03520100  RH  022%=      5-min Rain = 0
KLD1 062130Z 13011KT 36/10 A2997 RMK A01 T03550101  RH  021%=      5-min Rain = 0
KLD1 062131Z 13009KT 36/10 A2997 RMK A01 T03570099  RH  021%=      5-min Rain = 0
KLD1 062132Z 13009KT 36/10 A2997 RMK A01 T03580099  RH  021%=      5-min Rain = 0
KLD1 062133Z 12008KT 36/10 A2997 RMK A01 T03610099  RH  020%=      5-min Rain = 0
KLD1 062134Z 13007KT 37/11 A2997 RMK A01 T03660106  RH  021%=      5-min Rain = 0
KLD1 062135Z 13011KT 37/10 A2997 RMK A01 T03690100  RH  020%=      5-min Rain = 0
KLD1 062136Z 14009KT 37/10 A2997 RMK A01 T03670104  RH  020%=      5-min Rain = 0
KLD1 062137Z 13010KT 37/10 A2997 RMK A01 T03660104  RH  021%=      5-min Rain = 0
KLD1 062138Z 13010KT 37/10 A2997 RMK A01 T03650100  RH  020%=      5-min Rain = 0
KLD1 062139Z 12011KT 36/10 A2996 RMK A01 T03630102  RH  021%=      5-min Rain = 0
KLD1 062140Z 11011KT 36/10 A2996 RMK A01 T03630102  RH  021%=      5-min Rain = 0
KLD1 062141Z 13011KT 36/10 A2996 RMK A01 T03630100  RH  020%=      5-min Rain = 0
KLD1 062142Z 13012KT 36/10 A2996 RMK A01 T03610097  RH  020%=      5-min Rain = 0
KLD1 062143Z 13010KT 36/10 A2996 RMK A01 T03580096  RH  020%=      5-min Rain = 0
KLD1 062144Z 13012KT 36/10 A2996 RMK A01 T03570096  RH  020%=      5-min Rain = 0
KLD1 062145Z 14013KT 36/10 A2996 RMK A01 T03560096  RH  021%=      5-min Rain = 0
KLD1 062146Z 14011KT 36/10 A2996 RMK A01 T03550098  RH  021%=      5-min Rain = 0
KLD1 062147Z 14010KT 35/10 A2996 RMK A01 T03530103  RH  022%=      5-min Rain = 0
KLD1 062148Z 14011KT 35/10 A2996 RMK A01 T03520101  RH  022%=      5-min Rain = 0
KLD1 062149Z 13010KT 35/10 A2996 RMK A01 T03520098  RH  021%=      5-min Rain = 0
KLD1 062150Z 13010KT 35/10 A2996 RMK A01 T03520096  RH  021%=      5-min Rain = 0
KLD1 062151Z 13011KT 35/10 A2996 RMK A01 T03540095  RH  021%=      5-min Rain = 0
KLD1 062152Z 14009KT 35/10 A2996 RMK A01 T03540099  RH  021%=      5-min Rain = 0
KLD1 062153Z 13009KT 35/10 A2996 RMK A01 T03530103  RH  022%=      5-min Rain = 0
KLD1 062154Z 13008KT 35/10 A2996 RMK A01 T03530102  RH  022%=      5-min Rain = 0
KLD1 062155Z 14007KT 35/11 A2996 RMK A01 T03540106  RH  022%=      5-min Rain = 0
KLD1 062156Z 13007KT 36/10 A2996 RMK A01 T03550101  RH  021%=      5-min Rain = 0
KLD1 062157Z 14007KT 35/10 A2996 RMK A01 T03540099  RH  021%=      5-min Rain = 0
KLD1 062158Z 14006KT 35/10 A2996 RMK A01 T03540102  RH  022%=      5-min Rain = 0
KLD1 062159Z 14005KT 35/10 A2996 RMK A01 T03540102  RH  022%=      5-min Rain = 0
KLD1 062200Z 13005KT 35/11 A2996 RMK A01 T03540107  RH  022%=      5-min Rain = 0
KLD1 062201Z 13004KT 35/10 A2996 RMK A01 T03540104  RH  022%=      5-min Rain = 0
KLD1 062202Z 12007KT 36/11 A2996 RMK A01 T03550105  RH  022%=      5-min Rain = 0
KLD1 062203Z 12010KT 36/10 A2996 RMK A01 T03560100  RH  021%=      5-min Rain = 0
KLD1 062204Z 12010KT 36/10 A2996 RMK A01 T03560097  RH  021%=      5-min Rain = 0
KLD1 062205Z 11009KT 36/10 A2996 RMK A01 T03560100  RH  021%=      5-min Rain = 0
KLD1 062206Z 10009KT 36/10 A2995 RMK A01 T03560104  RH  022%=      5-min Rain = 0
KLD1 062207Z 12007KT 36/10 A2995 RMK A01 T03550102  RH  021%=      5-min Rain = 0
KLD1 062208Z 13007KT 36/10 A2995 RMK A01 T03560104  RH  022%=      5-min Rain = 0
KLD1 062209Z 13008KT 36/11 A2995 RMK A01 T03570108  RH  022%=      5-min Rain = 0
KLD1 062210Z 14010KT 36/11 A2995 RMK A01 T03560107  RH  022%=      5-min Rain = 0
KLD1 062211Z 13011KT 36/10 A2995 RMK A01 T03550103  RH  022%=      5-min Rain = 0
KLD1 062212Z 13010KT 35/10 A2995 RMK A01 T03540103  RH  022%=      5-min Rain = 0
KLD1 062213Z 14010KT 35/11 A2995 RMK A01 T03540105  RH  022%=      5-min Rain = 0
KLD1 062214Z 15011KT 35/11 A2995 RMK A01 T03540109  RH  023%=      5-min Rain = 0
KLD1 062215Z 15010KT 35/11 A2995 RMK A01 T03520110  RH  023%=      5-min Rain = 0
KLD1 062216Z 14010KT 35/11 A2995 RMK A01 T03490110  RH  023%=      5-min Rain = 0
KLD1 062217Z 13011KT 35/10 A2995 RMK A01 T03480104  RH  023%=      5-min Rain = 0
KLD1 062218Z 13010G15KT 35/10 A2995 RMK A01 T03500103  RH  022%=      5-min Rain = 0
KLD1 062219Z 14012KT 35/11 A2995 RMK A01 T03530106  RH  022%=      5-min Rain = 0
KLD1 062220Z 15010KT 35/11 A2995 RMK A01 T03530109  RH  023%=      5-min Rain = 0
KLD1 062221Z 16009KT 35/12 A2995 RMK A01 T03500115  RH  024%=      5-min Rain = 0
KLD1 062222Z 17011KT 35/12 A2995 RMK A01 T03470115  RH  025%=      5-min Rain = 0
KLD1 062223Z 16012KT 35/11 A2995 RMK A01 T03450114  RH  025%=      5-min Rain = 0
KLD1 062224Z 16013KT 35/11 A2995 RMK A01 T03450110  RH  024%=      5-min Rain = 0
KLD1 062225Z 16012KT 35/11 A2995 RMK A01 T03460107  RH  023%=      5-min Rain = 0
KLD1 062226Z 16010KT 35/11 A2995 RMK A01 T03470111  RH  024%=      5-min Rain = 0
KLD1 062227Z 16012KT 35/11 A2995 RMK A01 T03470112  RH  024%=      5-min Rain = 0
KLD1 062228Z 16014KT 35/11 A2994 RMK A01 T03460109  RH  024%=      5-min Rain = 0
KLD1 062229Z 15013KT 35/11 A2994 RMK A01 T03460107  RH  023%=      5-min Rain = 0
KLD1 062230Z 15011KT 35/11 A2994 RMK A01 T03470108  RH  023%=      5-min Rain = 0
KLD1 062231Z 16012KT 35/11 A2994 RMK A01 T03470114  RH  024%=      5-min Rain = 0
KLD1 062232Z 17012KT 35/11 A2994 RMK A01 T03460112  RH  024%=      5-min Rain = 0
KLD1 062233Z 17011KT 35/12 A2995 RMK A01 T03450115  RH  025%=      5-min Rain = 0
KLD1 062234Z 17010KT 34/12 A2995 RMK A01 T03440118  RH  025%=      5-min Rain = 0
KLD1 062235Z 16010KT 34/12 A2995 RMK A01 T03430119  RH  026%=      5-min Rain = 0
KLD1 062236Z 16008KT 34/12 A2995 RMK A01 T03410121  RH  026%=      5-min Rain = 0
KLD1 062237Z 16007KT 34/13 A2995 RMK A01 T03390125  RH  027%=      5-min Rain = 0
KLD1 062238Z 16007KT 34/13 A2995 RMK A01 T03380128  RH  028%=      5-min Rain = 0
KLD1 062239Z 16008KT 34/13 A2995 RMK A01 T03360127  RH  028%=      5-min Rain = 0
KLD1 062240Z 17008KT 34/13 A2995 RMK A01 T03350125  RH  028%=      5-min Rain = 0
KLD1 062241Z 18009KT 33/13 A2995 RMK A01 T03340127  RH  028%=      5-min Rain = 0
KLD1 062242Z 18010KT 33/12 A2995 RMK A01 T03330124  RH  028%=      5-min Rain = 0
KLD1 062243Z 18010KT 33/12 A2995 RMK A01 T03330122  RH  028%=      5-min Rain = 0
KLD1 062244Z 18010KT 33/12 A2995 RMK A01 T03340120  RH  027%=      5-min Rain = 0
KLD1 062245Z 17008KT 34/12 A2995 RMK A01 T03350123  RH  028%=      5-min Rain = 0
KLD1 062246Z 18007KT 34/13 A2995 RMK A01 T03350128  RH  029%=      5-min Rain = 0
KLD1 062247Z 17008KT 33/13 A2995 RMK A01 T03330129  RH  029%=      5-min Rain = 0
KLD1 062248Z 18009KT 33/13 A2995 RMK A01 T03320125  RH  029%=      5-min Rain = 0
KLD1 062249Z 17009KT 33/13 A2995 RMK A01 T03320125  RH  028%=      5-min Rain = 0
KLD1 062250Z 17009KT 33/12 A2995 RMK A01 T03330117  RH  027%=      5-min Rain = 0
KLD1 062251Z 17011KT 34/12 A2995 RMK A01 T03350117  RH  027%=      5-min Rain = 0
KLD1 062252Z 17014KT 34/11 A2995 RMK A01 T03370114  RH  026%=      5-min Rain = 0
KLD1 062253Z 16012KT 34/11 A2995 RMK A01 T03390112  RH  025%=      5-min Rain = 0
KLD1 062254Z 16010KT 34/11 A2995 RMK A01 T03400114  RH  025%=      5-min Rain = 0
KLD1 062255Z 18009KT 34/12 A2995 RMK A01 T03400123  RH  027%=      5-min Rain = 0
KLD1 062256Z 18011KT 34/12 A2995 RMK A01 T03360122  RH  027%=      5-min Rain = 0
KLD1 062257Z 19010KT 34/12 A2995 RMK A01 T03360120  RH  027%=      5-min Rain = 0
KLD1 062258Z 19011KT 34/12 A2995 RMK A01 T03350120  RH  027%=      5-min Rain = 0
KLD1 062259Z 18012KT 34/12 A2995 RMK A01 T03360118  RH  027%=      5-min Rain = 0
KLD1 062300Z 18009KT 34/12 A2995 RMK A01 T03370120  RH  027%=      5-min Rain = 0
KLD1 062301Z 18009G14KT 34/12 A2995 RMK A01 T03360121  RH  027%=      5-min Rain = 0
KLD1 062302Z 18010KT 34/12 A2995 RMK A01 T03350120  RH  027%=      5-min Rain = 0
KLD1 062303Z 19010KT 34/12 A2995 RMK A01 T03350119  RH  027%=      5-min Rain = 0
KLD1 062304Z 19010KT 34/12 A2995 RMK A01 T03360120  RH  027%=      5-min Rain = 0
KLD1 062305Z 19008KT 34/12 A2995 RMK A01 T03350121  RH  027%=      5-min Rain = 0
KLD1 062306Z 19007KT 33/12 A2995 RMK A01 T03340124  RH  028%=      5-min Rain = 0
KLD1 062307Z 19008KT 33/13 A2995 RMK A01 T03320125  RH  028%=      5-min Rain = 0
KLD1 062308Z 19009KT 33/12 A2995 RMK A01 T03320120  RH  028%=      5-min Rain = 0
KLD1 062309Z 19008KT 33/12 A2995 RMK A01 T03330119  RH  027%=      5-min Rain = 0
KLD1 062310Z 19008KT 33/12 A2995 RMK A01 T03340124  RH  028%=      5-min Rain = 0
KLD1 062311Z 19008KT 33/12 A2995 RMK A01 T03330124  RH  028%=      5-min Rain = 0
KLD1 062312Z 19009KT 33/12 A2995 RMK A01 T03320123  RH  028%=      5-min Rain = 0
KLD1 062313Z 19010KT 33/12 A2995 RMK A01 T03310121  RH  028%=      5-min Rain = 0
KLD1 062314Z 19009KT 33/12 A2995 RMK A01 T03320118  RH  027%=      5-min Rain = 0
KLD1 062315Z 20009KT 33/12 A2995 RMK A01 T03330122  RH  028%=      5-min Rain = 0
KLD1 062316Z 20010KT 33/12 A2995 RMK A01 T03320122  RH  028%=      5-min Rain = 0
KLD1 062317Z 20011KT 33/12 A2995 RMK A01 T03310122  RH  028%=      5-min Rain = 0
KLD1 062318Z 20010KT 33/13 A2995 RMK A01 T03310125  RH  029%=      5-min Rain = 0
KLD1 062319Z 20010KT 33/13 A2995 RMK A01 T03290127  RH  029%=      5-min Rain = 0
KLD1 062320Z 20010KT 33/13 A2995 RMK A01 T03280129  RH  030%=      5-min Rain = 0
KLD1 062321Z 20010KT 33/13 A2995 RMK A01 T03270132  RH  031%=      5-min Rain = 0
KLD1 062322Z 20009KT 33/13 A2995 RMK A01 T03250134  RH  031%=      5-min Rain = 0
KLD1 062323Z 21009KT 32/14 A2995 RMK A01 T03240137  RH  032%=      5-min Rain = 0
KLD1 062324Z 21009KT 32/14 A2995 RMK A01 T03220142  RH  034%=      5-min Rain = 0
KLD1 062325Z 19012G17KT 32/15 A2995 RMK A01 T03190147  RH  035%=      5-min Rain = 0
KLD1 062326Z 22013G20KT 32/16 A2995 RMK A01 T03160157  RH  038%=      5-min Rain = 0
KLD1 062327Z 23016KT 31/16 A2995 RMK A01 T03110162  RH  041%=      5-min Rain = 0
KLD1 062328Z 24015KT 31/15 A2995 RMK A01 T03070148  RH  038%=      5-min Rain = 0
KLD1 062329Z 23014KT 31/15 A2996 RMK A01 T03050153  RH  040%=      5-min Rain = 0
KLD1 062330Z 22015G22KT 30/15 A2996 RMK A01 T03020153  RH  040%=      5-min Rain = 0
KLD1 062331Z 21016KT 30/16 A2996 RMK A01 T02990156  RH  042%=      5-min Rain = 0
KLD1 062332Z 22015KT 30/16 A2997 RMK A01 T02950161  RH  044%=      5-min Rain = 0
KLD1 062333Z 21017KT 29/16 A2997 RMK A01 T02910161  RH  045%=      5-min Rain = 0
KLD1 062334Z 22021G28KT 29/15 A2997 RMK A01 T02890154  RH  044%=      5-min Rain = 0
KLD1 062335Z 22019G24KT 29/14 A2997 RMK A01 T02900143  RH  041%=      5-min Rain = 0
KLD1 062336Z 22017KT 29/14 A2997 RMK A01 T02920141  RH  040%=      5-min Rain = 0
KLD1 062337Z 22018G25KT 29/14 A2997 RMK A01 T02930140  RH  039%=      5-min Rain = 0
KLD1 062338Z 21019G26KT 29/13 A2997 RMK A01 T02940134  RH  037%=      5-min Rain = 0
KLD1 062339Z 20020G28KT 30/13 A2997 RMK A01 T02960134  RH  037%=      5-min Rain = 0
KLD1 062340Z 20019G25KT 30/13 A2997 RMK A01 T02960134  RH  037%=      5-min Rain = 0
KLD1 062341Z 20017G29KT 30/14 A2997 RMK A01 T02960135  RH  037%=      5-min Rain = 0
KLD1 062342Z 19020G29KT 30/14 A2997 RMK A01 T02960139  RH  038%=      5-min Rain = 0
KLD1 062343Z 19019KT 29/14 A2997 RMK A01 T02900142  RH  040%=      5-min Rain = 0
KLD1 062344Z 18018G23KT 29/15 A2997 RMK A01 T02850146  RH  043%=      5-min Rain = 0
KLD1 062345Z 19015G20KT 28/14 A2998 RMK A01 T02830142  RH  042%=      5-min Rain = 0
KLD1 062346Z 18018G24KT 28/14 A2998 RMK A01 T02840140  RH  041%=      5-min Rain = 0
KLD1 062347Z 19018G23KT 29/14 A2998 RMK A01 T02850140  RH  041%=      5-min Rain = 0
KLD1 062348Z 20018KT 28/15 A2998 RMK A01 T02820147  RH  044%=      5-min Rain = 0
KLD1 062349Z 20013KT 28/15 A2998 RMK A01 T02790147  RH  044%=      5-min Rain = 0
KLD1 062350Z 21014G19KT 28/15 A2998 RMK A01 T02770148  RH  045%=      5-min Rain = 0
KLD1 062351Z 20014G19KT 28/14 A2998 RMK A01 T02770141  RH  043%=      5-min Rain = 0
KLD1 062352Z 20013KT 28/15 A2998 RMK A01 T02790145  RH  044%=      5-min Rain = 0
KLD1 062353Z 20015KT 28/14 A2998 RMK A01 T02790144  RH  044%=      5-min Rain = 0
KLD1 062354Z 21016KT 28/14 A2997 RMK A01 T02800141  RH  043%=      5-min Rain = 0
KLD1 062355Z 19015KT 28/14 A2998 RMK A01 T02820142  RH  042%=      5-min Rain = 0
KLD1 062356Z 20013KT 28/14 A2998 RMK A01 T02840139  RH  041%=      5-min Rain = 0
KLD1 062357Z 22014KT 29/14 A2998 RMK A01 T02850144  RH  042%=      5-min Rain = 0
KLD1 062358Z 21014KT 28/15 A2998 RMK A01 T02820149  RH  044%=      5-min Rain = 0
KLD1 062359Z 21013KT 28/15 A2998 RMK A01 T02800151  RH  045%=      5-min Rain = 0
KLD1 070000Z 21015KT 28/15 A2998 RMK A01 T02780151  RH  046%=      5-min Rain = 0
KLD1 070001Z 21015G21KT 28/15 A2998 RMK A01 T02770151  RH  046%=      5-min Rain = 0
KLD1 070002Z 20013KT 28/15 A2998 RMK A01 T02760151  RH  047%=      5-min Rain = 0
KLD1 070003Z 19012KT 27/16 A2998 RMK A01 T02740157  RH  049%=      5-min Rain = 0
KLD1 070004Z 19013KT 27/16 A2998 RMK A01 T02700159  RH  051%=      5-min Rain = 0
KLD1 070005Z 18011KT 27/16 A2998 RMK A01 T02670163  RH  053%=      5-min Rain = 0
KLD1 070006Z 16016G22KT 26/17 A2998 RMK A01 T02620167  RH  056%=      5-min Rain = 0
KLD1 070007Z 16019G26KT 26/15 A2998 RMK A01 T02620152  RH  051%=      5-min Rain = 0
KLD1 070008Z 17017G23KT 27/15 A2998 RMK A01 T02660151  RH  049%=      5-min Rain = 0
KLD1 070009Z 17019KT 27/15 A2998 RMK A01 T02670149  RH  048%=      5-min Rain = 0
KLD1 070010Z 17019KT 27/15 A2998 RMK A01 T02680145  RH  047%=      5-min Rain = 0
KLD1 070011Z 17018G23KT 27/15 A2998 RMK A01 T02680151  RH  049%=      5-min Rain = 0
KLD1 070012Z 17018KT 27/15 A2998 RMK A01 T02660149  RH  049%=      5-min Rain = 0
KLD1 070013Z 18017KT 27/15 A2998 RMK A01 T02660147  RH  048%=      5-min Rain = 0
KLD1 070014Z 17015G21KT 27/15 A2999 RMK A01 T02660146  RH  048%=      5-min Rain = 0
KLD1 070015Z 18013G18KT 27/15 A2999 RMK A01 T02670150  RH  049%=      5-min Rain = 0
KLD1 070016Z 18013G18KT 27/15 A2999 RMK A01 T02660149  RH  048%=      5-min Rain = 0
KLD1 070017Z 18014KT 27/15 A2999 RMK A01 T02670154  RH  050%=      5-min Rain = 0
KLD1 070018Z 20017G23KT 27/16 A2999 RMK A01 T02650157  RH  052%=      5-min Rain = 0
KLD1 070019Z 19021G27KT 26/16 A2999 RMK A01 T02640155  RH  051%=      5-min Rain = 0
KLD1 070020Z 19021G27KT 26/15 A30 RMK A01 T02640151  RH  050%=      5-min Rain = 0
KLD1 070021Z 19022G28KT 26/15 A30 RMK A01 T02640151  RH  050%=      5-min Rain = 0
KLD1 070022Z 19020G25KT 26/15 A30 RMK A01 T02630152  RH  050%=      5-min Rain = 0
KLD1 070023Z 19016G21KT 26/15 A30 RMK A01 T02600152  RH  051%=      5-min Rain = 0
KLD1 070024Z 20016G21KT 26/15 A30 RMK A01 T02590147  RH  050%=      5-min Rain = 0
KLD1 070025Z 18014KT 26/15 A30 RMK A01 T02600146  RH  049%=      5-min Rain = 0
KLD1 070026Z 19014G19KT 26/15 A30 RMK A01 T02600148  RH  050%=      5-min Rain = 0
KLD1 070027Z 19016G22KT 26/15 A2999 RMK A01 T02600149  RH  050%=      5-min Rain = 0
KLD1 070028Z 19018KT 26/14 A2999 RMK A01 T02600144  RH  049%=      5-min Rain = 0
KLD1 070029Z 19016KT 26/15 A2999 RMK A01 T02600145  RH  049%=      5-min Rain = 0
KLD1 070030Z 18013G18KT 26/15 A2999 RMK A01 T02590148  RH  050%=      5-min Rain = 0
KLD1 070031Z 18016G22KT 26/15 A2999 RMK A01 T02580148  RH  050%=      5-min Rain = 0
KLD1 070032Z 18016G22KT 26/15 A30 RMK A01 T02590146  RH  050%=      5-min Rain = 0
KLD1 070033Z 18017G23KT 26/14 A30 RMK A01 T02620141  RH  047%=      5-min Rain = 0
KLD1 070034Z 17017G22KT 27/14 A30 RMK A01 T02650142  RH  047%=      5-min Rain = 0
KLD1 070035Z 17018G23KT 27/14 A30 RMK A01 T02660144  RH  047%=      5-min Rain = 0
KLD1 070036Z 17017G25KT 27/15 A30 RMK A01 T02660145  RH  047%=      5-min Rain = 0
KLD1 070037Z 16018G24KT 27/15 A30 RMK A01 T02660147  RH  048%=      5-min Rain = 0
KLD1 070038Z 15016G23KT 27/15 A30 RMK A01 T02650150  RH  049%=      5-min Rain = 0
KLD1 070039Z 15016G22KT 26/15 A30 RMK A01 T02640146  RH  048%=      5-min Rain = 0
KLD1 070040Z 15016KT 26/15 A30 RMK A01 T02640150  RH  049%=      5-min Rain = 0
KLD1 070041Z 16015KT 26/15 A30 RMK A01 T02640150  RH  050%=      5-min Rain = 0
KLD1 070042Z 17014KT 26/15 A3001 RMK A01 T02630149  RH  049%=      5-min Rain = 0
KLD1 070043Z 18012G17KT 26/15 A3001 RMK A01 T02630152  RH  050%=      5-min Rain = 0
KLD1 070044Z 18014KT 26/15 A3001 RMK A01 T02620151  RH  050%=      5-min Rain = 0
KLD1 070045Z 18014KT 26/15 A3001 RMK A01 T02610153  RH  051%=      5-min Rain = 0
KLD1 070046Z 18014KT 26/16 A3001 RMK A01 T02600155  RH  052%=      5-min Rain = 0
KLD1 070047Z 17015G20KT 26/16 A3001 RMK A01 T02580156  RH  053%=      5-min Rain = 0
KLD1 070048Z 17014KT 26/16 A3002 RMK A01 T02570157  RH  054%=      5-min Rain = 0
KLD1 070049Z 17014KT 26/16 A3002 RMK A01 T02560157  RH  054%=      5-min Rain = 0
KLD1 070050Z 17015KT 26/16 A3002 RMK A01 T02550156  RH  054%=      5-min Rain = 0
KLD1 070051Z 17015G20KT 26/15 A3001 RMK A01 T02550153  RH  053%=      5-min Rain = 0
KLD1 070052Z 16014KT 26/15 A3001 RMK A01 T02570153  RH  053%=      5-min Rain = 0
KLD1 070053Z 16014KT 26/15 A3001 RMK A01 T02580152  RH  052%=      5-min Rain = 0
KLD1 070054Z 16014KT 26/15 A3001 RMK A01 T02580152  RH  052%=      5-min Rain = 0
KLD1 070055Z 16014KT 26/15 A3001 RMK A01 T02590152  RH  052%=      5-min Rain = 0
KLD1 070056Z 16013KT 26/16 A3001 RMK A01 T02590155  RH  052%=      5-min Rain = 0
KLD1 070057Z 16011KT 26/16 A3001 RMK A01 T02580157  RH  053%=      5-min Rain = 0
KLD1 070058Z 15012KT 26/16 A3001 RMK A01 T02570156  RH  054%=      5-min Rain = 0
KLD1 070059Z 16011KT 26/16 A3001 RMK A01 T02570156  RH  054%=      5-min Rain = 0
KLD1 070100Z 17011KT 26/16 A3002 RMK A01 T02570157  RH  054%=      5-min Rain = 0
KLD1 070101Z 18011KT 26/16 A3002 RMK A01 T02570160  RH  055%=      5-min Rain = 0
KLD1 070102Z 19010KT 25/17 A3002 RMK A01 T02540166  RH  058%=      5-min Rain = 0
KLD1 070103Z 19010KT 25/17 A3003 RMK A01 T02510166  RH  059%=      5-min Rain = 0
KLD1 070104Z 22011KT 25/17 A3003 RMK A01 T02490171  RH  062%=      5-min Rain = 0
KLD1 070105Z 23013KT 25/18 A3003 RMK A01 T02450177  RH  066%=      5-min Rain = 0
KLD1 070106Z 22016KT 24/17 A3003 RMK A01 T02420167  RH  063%=      5-min Rain = 0
KLD1 070107Z 21014KT 25/16 A3003 RMK A01 T02460162  RH  060%=      5-min Rain = 0
KLD1 070108Z 20013KT 25/16 A3003 RMK A01 T02480163  RH  059%=      5-min Rain = 0
KLD1 070109Z 20013KT 25/17 A3003 RMK A01 T02470167  RH  061%=      5-min Rain = 0
KLD1 070110Z 20014KT 25/16 A3003 RMK A01 T02470160  RH  058%=      5-min Rain = 0
KLD1 070111Z 20013KT 25/16 A3003 RMK A01 T02490158  RH  057%=      5-min Rain = 0
KLD1 070112Z 19013KT 25/16 A3003 RMK A01 T02500161  RH  058%=      5-min Rain = 0
KLD1 070113Z 20011KT 25/16 A3002 RMK A01 T02490163  RH  059%=      5-min Rain = 0
KLD1 070114Z 20012KT 25/16 A3002 RMK A01 T02480163  RH  059%=      5-min Rain = 0
KLD1 070115Z 20011KT 25/16 A3002 RMK A01 T02470163  RH  059%=      5-min Rain = 0
KLD1 070116Z 19010KT 25/16 A3002 RMK A01 T02470164  RH  060%=      5-min Rain = 0
KLD1 070117Z 19010KT 25/17 A3002 RMK A01 T02460165  RH  061%=      5-min Rain = 0
KLD1 070118Z 18010KT 25/17 A3002 RMK A01 T02450165  RH  061%=      5-min Rain = 0
KLD1 070119Z 19011KT 25/16 A3002 RMK A01 T02460161  RH  059%=      5-min Rain = 0
KLD1 070120Z 18012KT 25/16 A3002 RMK A01 T02480160  RH  058%=      5-min Rain = 0
KLD1 070121Z 18011KT 25/16 A3002 RMK A01 T02490164  RH  059%=      5-min Rain = 0
KLD1 070122Z 18009KT 25/17 A3002 RMK A01 T02480165  RH  060%=      5-min Rain = 0
KLD1 070123Z 18009KT 25/17 A3002 RMK A01 T02470166  RH  060%=      5-min Rain = 0
KLD1 070124Z 18008KT 25/17 A3002 RMK A01 T02460166  RH  061%=      5-min Rain = 0
KLD1 070125Z 18009KT 25/17 A3002 RMK A01 T02460167  RH  061%=      5-min Rain = 0
KLD1 070126Z 18010KT 25/17 A3002 RMK A01 T02450168  RH  062%=      5-min Rain = 0
KLD1 070127Z 17012KT 24/17 A3002 RMK A01 T02440170  RH  063%=      5-min Rain = 0
KLD1 070128Z 17010KT 24/17 A3002 RMK A01 T02430169  RH  063%=      5-min Rain = 0
KLD1 070129Z 18009KT 24/17 A3002 RMK A01 T02430170  RH  064%=      5-min Rain = 0
KLD1 070130Z 16009KT 24/17 A3002 RMK A01 T02430171  RH  064%=      5-min Rain = 0
KLD1 070131Z 15010KT 24/17 A3002 RMK A01 T02420169  RH  063%=      5-min Rain = 0
KLD1 070132Z 14009KT 24/17 A3002 RMK A01 T02430171  RH  064%=      5-min Rain = 0
KLD1 070133Z 14009KT 24/17 A3001 RMK A01 T02430171  RH  064%=      5-min Rain = 0
KLD1 070134Z 14009KT 24/17 A3001 RMK A01 T02430170  RH  064%=      5-min Rain = 0
KLD1 070135Z 14009KT 24/17 A3001 RMK A01 T02430168  RH  063%=      5-min Rain = 0
KLD1 070136Z 14012KT 24/17 A3001 RMK A01 T02430167  RH  063%=      5-min Rain = 0
KLD1 070137Z 13010KT 24/17 A3001 RMK A01 T02440166  RH  062%=      5-min Rain = 0
KLD1 070138Z 13012KT 25/17 A3001 RMK A01 T02450168  RH  062%=      5-min Rain = 0
KLD1 070139Z 13012KT 25/17 A30 RMK A01 T02450167  RH  062%=      5-min Rain = 0
KLD1 070140Z 13011KT 25/16 A30 RMK A01 T02460162  RH  060%=      5-min Rain = 0
KLD1 070141Z 13011KT 25/16 A30 RMK A01 T02490161  RH  058%=      5-min Rain = 0
KLD1 070142Z 13011KT 25/16 A30 RMK A01 T02500163  RH  058%=      5-min Rain = 0
KLD1 070143Z 13011KT 25/16 A30 RMK A01 T02500163  RH  058%=      5-min Rain = 0
KLD1 070144Z 13012KT 25/16 A30 RMK A01 T02500164  RH  059%=      5-min Rain = 0
KLD1 070145Z 14012KT 25/17 A30 RMK A01 T02500165  RH  059%=      5-min Rain = 0
KLD1 070146Z 13010KT 25/17 A30 RMK A01 T02490165  RH  059%=      5-min Rain = 0
KLD1 070147Z 14011KT 25/17 A30 RMK A01 T02490166  RH  060%=      5-min Rain = 0
KLD1 070148Z 14011KT 25/16 A30 RMK A01 T02490163  RH  059%=      5-min Rain = 0
KLD1 070149Z 14010KT 25/16 A30 RMK A01 T02490159  RH  057%=      5-min Rain = 0
KLD1 070150Z 14010KT 25/16 A30 RMK A01 T02510160  RH  057%=      5-min Rain = 0
KLD1 070151Z 14010KT 25/16 A30 RMK A01 T02510163  RH  058%=      5-min Rain = 0
KLD1 070152Z 14011KT 25/16 A30 RMK A01 T02500162  RH  058%=      5-min Rain = 0
KLD1 070153Z 15012KT 25/16 A30 RMK A01 T02500158  RH  057%=      5-min Rain = 0
KLD1 070154Z 15012KT 25/16 A30 RMK A01 T02510157  RH  056%=      5-min Rain = 0
KLD1 070155Z 15011KT 25/16 A30 RMK A01 T02510157  RH  056%=      5-min Rain = 0
KLD1 070156Z 15011KT 25/16 A30 RMK A01 T02510157  RH  056%=      5-min Rain = 0
KLD1 070157Z 15010KT 25/16 A30 RMK A01 T02510159  RH  056%=      5-min Rain = 0
KLD1 070158Z 15009KT 25/16 A30 RMK A01 T02510159  RH  057%=      5-min Rain = 0
KLD1 070159Z 14009KT 25/16 A30 RMK A01 T02500159  RH  057%=      5-min Rain = 0
KLD1 070200Z 14010KT 25/16 A3001 RMK A01 T02500159  RH  057%=      5-min Rain = 0
KLD1 070201Z 14010KT 25/16 A3001 RMK A01 T02500160  RH  057%=      5-min Rain = 0
KLD1 070202Z 14009KT 25/16 A3001 RMK A01 T02500161  RH  058%=      5-min Rain = 0
KLD1 070203Z 14010KT 25/16 A3001 RMK A01 T02490162  RH  058%=      5-min Rain = 0
KLD1 070204Z 14011KT 25/16 A3001 RMK A01 T02490161  RH  058%=      5-min Rain = 0
KLD1 070205Z 14011KT 25/16 A3001 RMK A01 T02490159  RH  057%=      5-min Rain = 0
KLD1 070206Z 14013KT 25/16 A3001 RMK A01 T02500158  RH  057%=      5-min Rain = 0
KLD1 070207Z 14012KT 25/16 A30 RMK A01 T02510158  RH  056%=      5-min Rain = 0
KLD1 070208Z 14011KT 25/16 A30 RMK A01 T02510158  RH  056%=      5-min Rain = 0
KLD1 070209Z 15011KT 25/16 A30 RMK A01 T02510159  RH  057%=      5-min Rain = 0
KLD1 070210Z 15012KT 25/16 A30 RMK A01 T02510161  RH  057%=      5-min Rain = 0
KLD1 070211Z 15013KT 25/16 A30 RMK A01 T02500161  RH  057%=      5-min Rain = 0
KLD1 070212Z 15011KT 25/16 A30 RMK A01 T02500161  RH  058%=      5-min Rain = 0
KLD1 070213Z 15012KT 25/16 A30 RMK A01 T02500161  RH  058%=      5-min Rain = 0
KLD1 070214Z 15012G17KT 25/16 A30 RMK A01 T02500161  RH  058%=      5-min Rain = 0
KLD1 070215Z 15012KT 25/16 A30 RMK A01 T02500161  RH  058%=      5-min Rain = 0
KLD1 070216Z 15012KT 25/16 A30 RMK A01 T02500161  RH  058%=      5-min Rain = 0
KLD1 070217Z 15013KT 25/16 A30 RMK A01 T02500158  RH  056%=      5-min Rain = 0
KLD1 070218Z 16013KT 25/16 A30 RMK A01 T02510156  RH  056%=      5-min Rain = 0
KLD1 070219Z 16014G19KT 25/15 A30 RMK A01 T02530154  RH  054%=      5-min Rain = 0
KLD1 070220Z 15013KT 25/15 A30 RMK A01 T02540154  RH  054%=      5-min Rain = 0
KLD1 070221Z 15012G17KT 25/16 A30 RMK A01 T02540156  RH  054%=      5-min Rain = 0
KLD1 070222Z 15013KT 25/16 A30 RMK A01 T02540156  RH  055%=      5-min Rain = 0
KLD1 070223Z 15012KT 25/16 A30 RMK A01 T02530157  RH  055%=      5-min Rain = 0
KLD1 070224Z 15012KT 25/16 A30 RMK A01 T02520158  RH  056%=      5-min Rain = 0
KLD1 070225Z 15011KT 25/16 A30 RMK A01 T02510157  RH  056%=      5-min Rain = 0
KLD1 070226Z 15011G16KT 25/16 A30 RMK A01 T02510156  RH  056%=      5-min Rain = 0
KLD1 070227Z 16011KT 25/16 A30 RMK A01 T02510157  RH  056%=      5-min Rain = 0
KLD1 070228Z 16013KT 25/16 A30 RMK A01 T02500158  RH  056%=      5-min Rain = 0
KLD1 070229Z 16012KT 25/16 A30 RMK A01 T02500157  RH  056%=      5-min Rain = 0
KLD1 070230Z 16012KT 25/16 A30 RMK A01 T02500157  RH  056%=      5-min Rain = 0
KLD1 070231Z 16013KT 25/16 A30 RMK A01 T02490156  RH  056%=      5-min Rain = 0
KLD1 070232Z 16012G17KT 25/15 A30 RMK A01 T02500154  RH  055%=      5-min Rain = 0
KLD1 070233Z 16012KT 25/15 A30 RMK A01 T02500153  RH  055%=      5-min Rain = 0
KLD1 070234Z 16013G18KT 25/15 A30 RMK A01 T02500153  RH  055%=      5-min Rain = 0
KLD1 070235Z 16014KT 25/15 A30 RMK A01 T02500150  RH  054%=      5-min Rain = 0
KLD1 070236Z 16012KT 25/15 A30 RMK A01 T02510149  RH  053%=      5-min Rain = 0
KLD1 070237Z 16012KT 25/15 A30 RMK A01 T02510149  RH  053%=      5-min Rain = 0
KLD1 070238Z 16011KT 25/15 A30 RMK A01 T02510150  RH  053%=      5-min Rain = 0
KLD1 070239Z 16010KT 25/15 A30 RMK A01 T02510151  RH  054%=      5-min Rain = 0
KLD1 070240Z 15013KT 25/15 A30 RMK A01 T02500152  RH  054%=      5-min Rain = 0
KLD1 070241Z 15011KT 25/15 A30 RMK A01 T02490152  RH  055%=      5-min Rain = 0
KLD1 070242Z 15012KT 25/15 A30 RMK A01 T02480152  RH  055%=      5-min Rain = 0
KLD1 070243Z 15010KT 25/15 A30 RMK A01 T02470153  RH  056%=      5-min Rain = 0
KLD1 070244Z 15011KT 25/15 A30 RMK A01 T02460153  RH  056%=      5-min Rain = 0
KLD1 070245Z 15010KT 25/15 A30 RMK A01 T02450154  RH  057%=      5-min Rain = 0
KLD1 070246Z 16010KT 24/15 A30 RMK A01 T02440154  RH  057%=      5-min Rain = 0
KLD1 070247Z 18010KT 24/15 A3001 RMK A01 T02430154  RH  057%=      5-min Rain = 0
KLD1 070248Z 18010KT 24/15 A3001 RMK A01 T02420154  RH  058%=      5-min Rain = 0
KLD1 070249Z 18010KT 24/16 A3001 RMK A01 T02410155  RH  058%=      5-min Rain = 0
KLD1 070250Z 17009KT 24/15 A3001 RMK A01 T02400154  RH  059%=      5-min Rain = 0
KLD1 070251Z 16009KT 24/15 A3001 RMK A01 T02390153  RH  059%=      5-min Rain = 0
KLD1 070252Z 16010KT 24/15 A3001 RMK A01 T02390153  RH  058%=      5-min Rain = 0
KLD1 070253Z 16010KT 24/15 A30 RMK A01 T02390153  RH  058%=      5-min Rain = 0
KLD1 070254Z 17010KT 24/15 A30 RMK A01 T02390153  RH  058%=      5-min Rain = 0
KLD1 070255Z 17009KT 24/15 A30 RMK A01 T02390153  RH  058%=      5-min Rain = 0
KLD1 070256Z 18009KT 24/15 A30 RMK A01 T02390153  RH  058%=      5-min Rain = 0
KLD1 070257Z 18009KT 24/15 A3001 RMK A01 T02390153  RH  059%=      5-min Rain = 0
KLD1 070258Z 17009KT 24/15 A3001 RMK A01 T02380153  RH  059%=      5-min Rain = 0
KLD1 070259Z 17008KT 24/15 A3001 RMK A01 T02380153  RH  059%=      5-min Rain = 0
KLD1 070300Z 17008KT 24/15 A3001 RMK A01 T02380153  RH  059%=      5-min Rain = 0
KLD1 070301Z 17009KT 24/15 A3001 RMK A01 T02370153  RH  059%=      5-min Rain = 0
KLD1 070302Z 17009KT 24/15 A3001 RMK A01 T02360153  RH  060%=      5-min Rain = 0
KLD1 070303Z 17009KT 24/15 A3001 RMK A01 T02360153  RH  060%=      5-min Rain = 0
KLD1 070304Z 17008KT 24/15 A3001 RMK A01 T02360153  RH  060%=      5-min Rain = 0
KLD1 070305Z 17009KT 24/15 A3001 RMK A01 T02360153  RH  060%=      5-min Rain = 0
KLD1 070306Z 16008KT 24/15 A3001 RMK A01 T02360152  RH  060%=      5-min Rain = 0
KLD1 070307Z 16009KT 24/15 A3001 RMK A01 T02360152  RH  059%=      5-min Rain = 0
KLD1 070308Z 16010KT 24/15 A30 RMK A01 T02360152  RH  059%=      5-min Rain = 0
KLD1 070309Z 16009KT 24/15 A30 RMK A01 T02360152  RH  059%=      5-min Rain = 0
KLD1 070310Z 16009KT 24/15 A30 RMK A01 T02360152  RH  059%=      5-min Rain = 0
KLD1 070311Z 17009KT 24/15 A3001 RMK A01 T02360152  RH  059%=      5-min Rain = 0
KLD1 070312Z 17009KT 24/15 A3001 RMK A01 T02360152  RH  059%=      5-min Rain = 0
KLD1 070313Z 17009KT 24/15 A3001 RMK A01 T02360152  RH  059%=      5-min Rain = 0
KLD1 070314Z 17009KT 24/15 A3001 RMK A01 T02360152  RH  059%=      5-min Rain = 0
KLD1 070315Z 17009KT 24/15 A3001 RMK A01 T02360152  RH  059%=      5-min Rain = 0
KLD1 070316Z 17009KT 24/15 A3001 RMK A01 T02360152  RH  059%=      5-min Rain = 0
KLD1 070317Z 17009KT 24/15 A3001 RMK A01 T02360152  RH  059%=      5-min Rain = 0
KLD1 070318Z 17009KT 24/15 A3001 RMK A01 T02360152  RH  059%=      5-min Rain = 0
KLD1 070319Z 16008KT 24/15 A3001 RMK A01 T02350152  RH  060%=      5-min Rain = 0
KLD1 070320Z 16008KT 24/15 A30 RMK A01 T02350153  RH  060%=      5-min Rain = 0
KLD1 070321Z 16008KT 23/15 A30 RMK A01 T02340153  RH  060%=      5-min Rain = 0
KLD1 070322Z 17008KT 23/15 A30 RMK A01 T02340153  RH  060%=      5-min Rain = 0
KLD1 070323Z 17008KT 23/15 A30 RMK A01 T02340153  RH  060%=      5-min Rain = 0
KLD1 070324Z 17008KT 23/15 A30 RMK A01 T02330153  RH  061%=      5-min Rain = 0
KLD1 070325Z 17008KT 23/15 A30 RMK A01 T02330153  RH  061%=      5-min Rain = 0
KLD1 070326Z 17008KT 23/15 A30 RMK A01 T02320154  RH  061%=      5-min Rain = 0
KLD1 070327Z 17008KT 23/15 A30 RMK A01 T02320154  RH  062%=      5-min Rain = 0
KLD1 070328Z 17008KT 23/15 A30 RMK A01 T02310154  RH  062%=      5-min Rain = 0
KLD1 070329Z 17009KT 23/15 A30 RMK A01 T02310154  RH  062%=      5-min Rain = 0
KLD1 070330Z 17009KT 23/15 A30 RMK A01 T02310154  RH  062%=      5-min Rain = 0
KLD1 070331Z 17009KT 23/15 A30 RMK A01 T02310153  RH  061%=      5-min Rain = 0
KLD1 070332Z 17009KT 23/15 A30 RMK A01 T02310152  RH  061%=      5-min Rain = 0
KLD1 070333Z 17009KT 23/15 A30 RMK A01 T02310152  RH  061%=      5-min Rain = 0
KLD1 070334Z 17009KT 23/15 A30 RMK A01 T02320152  RH  061%=      5-min Rain = 0
KLD1 070335Z 17010KT 23/15 A30 RMK A01 T02320151  RH  060%=      5-min Rain = 0
KLD1 070336Z 17010KT 23/15 A30 RMK A01 T02330151  RH  060%=      5-min Rain = 0
KLD1 070337Z 17009KT 23/15 A30 RMK A01 T02330150  RH  059%=      5-min Rain = 0
KLD1 070338Z 17009KT 23/15 A30 RMK A01 T02340149  RH  059%=      5-min Rain = 0
KLD1 070339Z 17009G14KT 23/15 A30 RMK A01 T02340149  RH  059%=      5-min Rain = 0
KLD1 070340Z 17010KT 24/15 A30 RMK A01 T02350148  RH  058%=      5-min Rain = 0
KLD1 070341Z 17010KT 24/15 A30 RMK A01 T02350148  RH  058%=      5-min Rain = 0
KLD1 070342Z 17009KT 24/15 A30 RMK A01 T02350147  RH  058%=      5-min Rain = 0
KLD1 070343Z 17009KT 24/15 A30 RMK A01 T02360147  RH  057%=      5-min Rain = 0
KLD1 070344Z 17009KT 24/15 A30 RMK A01 T02360147  RH  057%=      5-min Rain = 0
KLD1 070345Z 17009KT 24/15 A30 RMK A01 T02360146  RH  057%=      5-min Rain = 0
KLD1 070346Z 17009KT 24/15 A30 RMK A01 T02360146  RH  057%=      5-min Rain = 0
KLD1 070347Z 17008KT 24/15 A30 RMK A01 T02370146  RH  057%=      5-min Rain = 0
KLD1 070348Z 17007KT 24/15 A30 RMK A01 T02370146  RH  057%=      5-min Rain = 0
KLD1 070349Z 17008KT 24/15 A30 RMK A01 T02360145  RH  057%=      5-min Rain = 0
KLD1 070350Z 17008KT 24/14 A30 RMK A01 T02370144  RH  056%=      5-min Rain = 0
KLD1 070351Z 17008KT 24/14 A30 RMK A01 T02370144  RH  056%=      5-min Rain = 0
KLD1 070352Z 17008KT 24/14 A30 RMK A01 T02370144  RH  056%=      5-min Rain = 0
KLD1 070353Z 17008KT 24/14 A30 RMK A01 T02380143  RH  055%=      5-min Rain = 0
KLD1 070354Z 17008KT 24/14 A30 RMK A01 T02380143  RH  055%=      5-min Rain = 0
KLD1 070355Z 18009KT 24/14 A30 RMK A01 T02380142  RH  055%=      5-min Rain = 0
KLD1 070356Z 18009KT 24/14 A30 RMK A01 T02390142  RH  055%=      5-min Rain = 0
KLD1 070357Z 18008KT 24/14 A30 RMK A01 T02390142  RH  055%=      5-min Rain = 0
KLD1 070358Z 18009KT 24/14 A30 RMK A01 T02390142  RH  054%=      5-min Rain = 0
KLD1 070359Z 18009KT 24/14 A30 RMK A01 T02390141  RH  054%=      5-min Rain = 0
KLD1 070400Z 18009KT 24/14 A30 RMK A01 T02390141  RH  054%=      5-min Rain = 0
KLD1 070401Z 18009KT 24/14 A30 RMK A01 T02400140  RH  053%=      5-min Rain = 0
KLD1 070402Z 18009KT 24/14 A30 RMK A01 T02410139  RH  053%=      5-min Rain = 0
KLD1 070403Z 18009KT 24/14 A30 RMK A01 T02410139  RH  053%=      5-min Rain = 0
KLD1 070404Z 18009KT 24/14 A30 RMK A01 T02420138  RH  052%=      5-min Rain = 0
KLD1 070405Z 18010KT 24/14 A30 RMK A01 T02420138  RH  052%=      5-min Rain = 0
KLD1 070406Z 18009KT 24/14 A30 RMK A01 T02430137  RH  052%=      5-min Rain = 0
KLD1 070407Z 17009KT 24/14 A30 RMK A01 T02430137  RH  052%=      5-min Rain = 0
KLD1 070408Z 17010KT 24/14 A30 RMK A01 T02430136  RH  051%=      5-min Rain = 0
KLD1 070409Z 18009KT 24/14 A30 RMK A01 T02440136  RH  051%=      5-min Rain = 0
KLD1 070410Z 18009KT 24/14 A30 RMK A01 T02440137  RH  051%=      5-min Rain = 0
KLD1 070411Z 18009KT 24/14 A30 RMK A01 T02440137  RH  051%=      5-min Rain = 0
KLD1 070412Z 18009KT 24/14 A30 RMK A01 T02440137  RH  051%=      5-min Rain = 0
KLD1 070413Z 18010KT 24/14 A30 RMK A01 T02430137  RH  052%=      5-min Rain = 0
KLD1 070414Z 18009KT 24/14 A30 RMK A01 T02430138  RH  052%=      5-min Rain = 0
KLD1 070415Z 18009KT 24/14 A30 RMK A01 T02430138  RH  052%=      5-min Rain = 0
KLD1 070416Z 18009KT 24/14 A30 RMK A01 T02420138  RH  052%=      5-min Rain = 0
KLD1 070417Z 18009KT 24/14 A30 RMK A01 T02420138  RH  052%=      5-min Rain = 0
KLD1 070418Z 18009KT 24/14 A30 RMK A01 T02420138  RH  052%=      5-min Rain = 0
KLD1 070419Z 18009KT 24/14 A30 RMK A01 T02420137  RH  052%=      5-min Rain = 0
KLD1 070420Z 18009KT 24/14 A30 RMK A01 T02420135  RH  051%=      5-min Rain = 0
KLD1 070421Z 18009KT 24/14 A30 RMK A01 T02430135  RH  051%=      5-min Rain = 0
KLD1 070422Z 19009KT 24/13 A30 RMK A01 T02430134  RH  050%=      5-min Rain = 0
KLD1 070423Z 19008KT 24/13 A30 RMK A01 T02440134  RH  050%=      5-min Rain = 0
KLD1 070424Z 19008KT 25/13 A30 RMK A01 T02450134  RH  050%=      5-min Rain = 0
KLD1 070425Z 19008KT 25/13 A30 RMK A01 T02450134  RH  050%=      5-min Rain = 0
KLD1 070426Z 19007KT 24/14 A30 RMK A01 T02440135  RH  050%=      5-min Rain = 0
KLD1 070427Z 18007KT 24/14 A30 RMK A01 T02430135  RH  051%=      5-min Rain = 0
KLD1 070428Z 18007KT 24/14 A30 RMK A01 T02420136  RH  051%=      5-min Rain = 0
KLD1 070429Z 18007KT 24/14 A30 RMK A01 T02410136  RH  052%=      5-min Rain = 0
KLD1 070430Z 18006KT 24/14 A30 RMK A01 T02400137  RH  052%=      5-min Rain = 0
KLD1 070431Z 18006KT 24/14 A30 RMK A01 T02400137  RH  052%=      5-min Rain = 0
KLD1 070432Z 18006KT 24/14 A30 RMK A01 T02390137  RH  053%=      5-min Rain = 0
KLD1 070433Z 18006KT 24/14 A30 RMK A01 T02390138  RH  053%=      5-min Rain = 0
KLD1 070434Z 18006KT 24/14 A30 RMK A01 T02380138  RH  054%=      5-min Rain = 0
KLD1 070435Z 18006KT 24/14 A30 RMK A01 T02370138  RH  054%=      5-min Rain = 0
KLD1 070436Z 18006KT 24/14 A30 RMK A01 T02360138  RH  054%=      5-min Rain = 0
KLD1 070437Z 18006KT 24/14 A30 RMK A01 T02360137  RH  054%=      5-min Rain = 0
KLD1 070438Z 18006KT 24/14 A30 RMK A01 T02360137  RH  054%=      5-min Rain = 0
KLD1 070439Z 18006KT 24/14 A30 RMK A01 T02360136  RH  053%=      5-min Rain = 0
KLD1 070440Z 18006KT 24/14 A30 RMK A01 T02360136  RH  053%=      5-min Rain = 0
KLD1 070441Z 18007KT 24/14 A30 RMK A01 T02370137  RH  053%=      5-min Rain = 0
KLD1 070442Z 18006KT 24/14 A30 RMK A01 T02360137  RH  054%=      5-min Rain = 0
KLD1 070443Z 18006KT 24/14 A30 RMK A01 T02350138  RH  054%=      5-min Rain = 0
KLD1 070444Z 18006KT 23/14 A30 RMK A01 T02340138  RH  055%=      5-min Rain = 0
KLD1 070445Z 19006KT 23/14 A30 RMK A01 T02330139  RH  055%=      5-min Rain = 0
KLD1 070446Z 19007KT 23/14 A30 RMK A01 T02330140  RH  056%=      5-min Rain = 0
KLD1 070447Z 19007KT 23/14 A30 RMK A01 T02320140  RH  056%=      5-min Rain = 0
KLD1 070448Z 19006KT 23/14 A30 RMK A01 T02310140  RH  057%=      5-min Rain = 0
KLD1 070449Z 19006KT 23/14 A30 RMK A01 T02310141  RH  057%=      5-min Rain = 0
KLD1 070450Z 19007KT 23/14 A30 RMK A01 T02300141  RH  057%=      5-min Rain = 0
KLD1 070451Z 19006KT 23/14 A30 RMK A01 T02290141  RH  058%=      5-min Rain = 0
KLD1 070452Z 19006KT 23/14 A30 RMK A01 T02290141  RH  058%=      5-min Rain = 0
KLD1 070453Z 19006KT 23/14 A30 RMK A01 T02280141  RH  058%=      5-min Rain = 0
KLD1 070454Z 19007KT 23/14 A30 RMK A01 T02280142  RH  058%=      5-min Rain = 0
KLD1 070455Z 19007KT 23/14 A30 RMK A01 T02270142  RH  059%=      5-min Rain = 0
KLD1 070456Z 19007KT 23/14 A30 RMK A01 T02260142  RH  059%=      5-min Rain = 0
KLD1 070457Z 19007KT 23/14 A30 RMK A01 T02260143  RH  059%=      5-min Rain = 0
KLD1 070458Z 19007KT 23/14 A30 RMK A01 T02250143  RH  060%=      5-min Rain = 0
KLD1 070459Z 20007KT 23/14 A30 RMK A01 T02250143  RH  060%=      5-min Rain = 0

Page generated in 0.1507 seconds.